<?xml version='1.0' encoding='UTF-8'?><gpx version="1.1" creator="JPX - https://github.com/jenetics/jpx" xmlns="http://www.topografix.com/GPX/1/1"><trk><trkseg><trkpt lat="40.6988223" lon="17.3423583"><ele>421.00000000000006</ele><time>2026-04-03T16:11:18.469Z</time></trkpt><trkpt lat="40.6988263" lon="17.3422357"><ele>421.0</ele><time>2026-04-03T16:11:21.469Z</time></trkpt><trkpt lat="40.6987934" lon="17.3421395"><ele>421.0</ele><time>2026-04-03T16:11:28.47Z</time></trkpt><trkpt lat="40.6987489" lon="17.342072"><ele>421.0</ele><time>2026-04-03T16:11:30.468Z</time></trkpt><trkpt lat="40.6986915" lon="17.3420256"><ele>421.00000000000006</ele><time>2026-04-03T16:11:32.469Z</time></trkpt><trkpt lat="40.6986256" lon="17.3420179"><ele>421.0</ele><time>2026-04-03T16:11:34.469Z</time></trkpt><trkpt lat="40.6985036" lon="17.3421233"><ele>420.8</ele><time>2026-04-03T16:11:36.469Z</time></trkpt><trkpt lat="40.6983858" lon="17.3422406"><ele>420.6</ele><time>2026-04-03T16:11:38.469Z</time></trkpt><trkpt lat="40.6983089" lon="17.3422775"><ele>420.4</ele><time>2026-04-03T16:11:39.469Z</time></trkpt><trkpt lat="40.6982411" lon="17.3423209"><ele>420.2</ele><time>2026-04-03T16:11:40.469Z</time></trkpt><trkpt lat="40.698172" lon="17.342386"><ele>420.0</ele><time>2026-04-03T16:11:41.468Z</time></trkpt><trkpt lat="40.6980891" lon="17.3424591"><ele>420.0</ele><time>2026-04-03T16:11:42.469Z</time></trkpt><trkpt lat="40.6980073" lon="17.3425293"><ele>420.0</ele><time>2026-04-03T16:11:43.469Z</time></trkpt><trkpt lat="40.6979099" lon="17.3425914"><ele>420.0</ele><time>2026-04-03T16:11:44.47Z</time></trkpt><trkpt lat="40.6978428" lon="17.3426544"><ele>420.0</ele><time>2026-04-03T16:11:45.469Z</time></trkpt><trkpt lat="40.6977805" lon="17.3427275"><ele>420.0</ele><time>2026-04-03T16:11:46.469Z</time></trkpt><trkpt lat="40.6977377" lon="17.3427925"><ele>420.0</ele><time>2026-04-03T16:11:47.47Z</time></trkpt><trkpt lat="40.6976924" lon="17.3428517"><ele>420.5</ele><time>2026-04-03T16:11:48.47Z</time></trkpt><trkpt lat="40.6976276" lon="17.342914"><ele>421.0</ele><time>2026-04-03T16:11:49.469Z</time></trkpt><trkpt lat="40.6975412" lon="17.3429762"><ele>421.5</ele><time>2026-04-03T16:11:51.469Z</time></trkpt><trkpt lat="40.6974912" lon="17.3430328"><ele>422.0</ele><time>2026-04-03T16:11:52.469Z</time></trkpt><trkpt lat="40.6974102" lon="17.3430912"><ele>422.5</ele><time>2026-04-03T16:11:54.47Z</time></trkpt><trkpt lat="40.6973303" lon="17.3431458"><ele>423.0</ele><time>2026-04-03T16:11:56.469Z</time></trkpt><trkpt lat="40.6972347" lon="17.3432246"><ele>423.4</ele><time>2026-04-03T16:11:58.47Z</time></trkpt><trkpt lat="40.6971619" lon="17.3432609"><ele>423.79999999999995</ele><time>2026-04-03T16:11:59.468Z</time></trkpt><trkpt lat="40.6970921" lon="17.3432948"><ele>424.2</ele><time>2026-04-03T16:12:00.469Z</time></trkpt><trkpt lat="40.6969827" lon="17.3433422"><ele>424.6</ele><time>2026-04-03T16:12:02.468Z</time></trkpt><trkpt lat="40.6968647" lon="17.3433698"><ele>425.0</ele><time>2026-04-03T16:12:04.469Z</time></trkpt><trkpt lat="40.6967749" lon="17.3433794"><ele>425.49999999999994</ele><time>2026-04-03T16:12:05.468Z</time></trkpt><trkpt lat="40.6967103" lon="17.3433996"><ele>426.0</ele><time>2026-04-03T16:12:06.467Z</time></trkpt><trkpt lat="40.6966332" lon="17.3434128"><ele>426.5</ele><time>2026-04-03T16:12:07.469Z</time></trkpt><trkpt lat="40.6965624" lon="17.3434361"><ele>427.0</ele><time>2026-04-03T16:12:08.468Z</time></trkpt><trkpt lat="40.6964968" lon="17.3434868"><ele>427.49999999999994</ele><time>2026-04-03T16:12:09.467Z</time></trkpt><trkpt lat="40.6964296" lon="17.3435696"><ele>428.0</ele><time>2026-04-03T16:12:10.469Z</time></trkpt><trkpt lat="40.6963825" lon="17.3436386"><ele>428.0</ele><time>2026-04-03T16:12:11.469Z</time></trkpt><trkpt lat="40.696317" lon="17.3437853"><ele>427.99999999999994</ele><time>2026-04-03T16:12:13.468Z</time></trkpt><trkpt lat="40.6962883" lon="17.3438951"><ele>427.99999999999994</ele><time>2026-04-03T16:12:15.468Z</time></trkpt><trkpt lat="40.6962796" lon="17.3440082"><ele>428.0</ele><time>2026-04-03T16:12:17.469Z</time></trkpt><trkpt lat="40.6962769" lon="17.3441438"><ele>428.0</ele><time>2026-04-03T16:12:19.468Z</time></trkpt><trkpt lat="40.6962677" lon="17.3442908"><ele>427.99999999999994</ele><time>2026-04-03T16:12:21.468Z</time></trkpt><trkpt lat="40.6962489" lon="17.3444308"><ele>428.0</ele><time>2026-04-03T16:12:23.468Z</time></trkpt><trkpt lat="40.6962574" lon="17.3445171"><ele>428.0</ele><time>2026-04-03T16:12:24.467Z</time></trkpt><trkpt lat="40.6962602" lon="17.3446025"><ele>428.0</ele><time>2026-04-03T16:12:25.467Z</time></trkpt><trkpt lat="40.6962566" lon="17.3447284"><ele>427.99999999999994</ele><time>2026-04-03T16:12:26.467Z</time></trkpt><trkpt lat="40.6962467" lon="17.3448552"><ele>428.0</ele><time>2026-04-03T16:12:27.467Z</time></trkpt><trkpt lat="40.6962205" lon="17.3449664"><ele>428.8333333333333</ele><time>2026-04-03T16:12:28.467Z</time></trkpt><trkpt lat="40.6962012" lon="17.3450914"><ele>429.66666666666663</ele><time>2026-04-03T16:12:29.468Z</time></trkpt><trkpt lat="40.6961733" lon="17.3452141"><ele>430.5</ele><time>2026-04-03T16:12:30.467Z</time></trkpt><trkpt lat="40.6961404" lon="17.3453166"><ele>431.33333333333337</ele><time>2026-04-03T16:12:31.468Z</time></trkpt><trkpt lat="40.6961148" lon="17.3454082"><ele>432.1666666666667</ele><time>2026-04-03T16:12:32.468Z</time></trkpt><trkpt lat="40.6960863" lon="17.3455027"><ele>433.0</ele><time>2026-04-03T16:12:33.468Z</time></trkpt><trkpt lat="40.6960517" lon="17.3456219"><ele>433.4</ele><time>2026-04-03T16:12:34.468Z</time></trkpt><trkpt lat="40.696004" lon="17.3457337"><ele>433.79999999999995</ele><time>2026-04-03T16:12:35.468Z</time></trkpt><trkpt lat="40.6959474" lon="17.3458549"><ele>434.2</ele><time>2026-04-03T16:12:36.468Z</time></trkpt><trkpt lat="40.6958906" lon="17.3459743"><ele>434.6</ele><time>2026-04-03T16:12:37.468Z</time></trkpt><trkpt lat="40.69583" lon="17.3460942"><ele>435.0</ele><time>2026-04-03T16:12:38.468Z</time></trkpt><trkpt lat="40.6957653" lon="17.3461917"><ele>435.0</ele><time>2026-04-03T16:12:39.468Z</time></trkpt><trkpt lat="40.6956953" lon="17.3462889"><ele>435.0</ele><time>2026-04-03T16:12:40.468Z</time></trkpt><trkpt lat="40.6956268" lon="17.3463897"><ele>435.0</ele><time>2026-04-03T16:12:41.467Z</time></trkpt><trkpt lat="40.6955414" lon="17.3464855"><ele>435.0</ele><time>2026-04-03T16:12:42.469Z</time></trkpt><trkpt lat="40.6954679" lon="17.3465897"><ele>435.0</ele><time>2026-04-03T16:12:43.467Z</time></trkpt><trkpt lat="40.6953975" lon="17.3466993"><ele>435.25</ele><time>2026-04-03T16:12:44.467Z</time></trkpt><trkpt lat="40.6953239" lon="17.3468091"><ele>435.5</ele><time>2026-04-03T16:12:45.469Z</time></trkpt><trkpt lat="40.6952391" lon="17.3469064"><ele>435.75</ele><time>2026-04-03T16:12:46.468Z</time></trkpt><trkpt lat="40.695146" lon="17.3469792"><ele>436.0</ele><time>2026-04-03T16:12:47.468Z</time></trkpt><trkpt lat="40.6950273" lon="17.3469824"><ele>436.0</ele><time>2026-04-03T16:12:48.467Z</time></trkpt><trkpt lat="40.6949104" lon="17.3470025"><ele>436.0</ele><time>2026-04-03T16:12:49.468Z</time></trkpt><trkpt lat="40.6947892" lon="17.3470294"><ele>436.0</ele><time>2026-04-03T16:12:50.468Z</time></trkpt><trkpt lat="40.6946477" lon="17.3470999"><ele>436.0</ele><time>2026-04-03T16:12:51.467Z</time></trkpt><trkpt lat="40.6945053" lon="17.3471951"><ele>436.0</ele><time>2026-04-03T16:12:52.468Z</time></trkpt><trkpt lat="40.6943782" lon="17.3472947"><ele>436.0</ele><time>2026-04-03T16:12:53.469Z</time></trkpt><trkpt lat="40.6942399" lon="17.3474141"><ele>436.0</ele><time>2026-04-03T16:12:54.468Z</time></trkpt><trkpt lat="40.6940992" lon="17.3475397"><ele>436.0</ele><time>2026-04-03T16:12:55.468Z</time></trkpt><trkpt lat="40.693953" lon="17.3476647"><ele>436.0</ele><time>2026-04-03T16:12:56.469Z</time></trkpt><trkpt lat="40.6937993" lon="17.3477978"><ele>436.0</ele><time>2026-04-03T16:12:57.467Z</time></trkpt><trkpt lat="40.6936428" lon="17.3479394"><ele>436.0</ele><time>2026-04-03T16:12:58.468Z</time></trkpt><trkpt lat="40.6934954" lon="17.348073"><ele>436.0</ele><time>2026-04-03T16:12:59.467Z</time></trkpt><trkpt lat="40.6933571" lon="17.3482087"><ele>436.0</ele><time>2026-04-03T16:13:00.469Z</time></trkpt><trkpt lat="40.6932146" lon="17.3483304"><ele>436.0</ele><time>2026-04-03T16:13:01.468Z</time></trkpt><trkpt lat="40.6930755" lon="17.3484452"><ele>436.0</ele><time>2026-04-03T16:13:02.468Z</time></trkpt><trkpt lat="40.6929519" lon="17.3485602"><ele>436.0</ele><time>2026-04-03T16:13:03.469Z</time></trkpt><trkpt lat="40.6928331" lon="17.3486773"><ele>436.75</ele><time>2026-04-03T16:13:04.467Z</time></trkpt><trkpt lat="40.6927247" lon="17.3487801"><ele>437.5</ele><time>2026-04-03T16:13:05.468Z</time></trkpt><trkpt lat="40.6926204" lon="17.3488589"><ele>438.25</ele><time>2026-04-03T16:13:06.469Z</time></trkpt><trkpt lat="40.6925087" lon="17.3489165"><ele>439.0</ele><time>2026-04-03T16:13:07.468Z</time></trkpt><trkpt lat="40.6923925" lon="17.3489539"><ele>439.0</ele><time>2026-04-03T16:13:08.467Z</time></trkpt><trkpt lat="40.6922515" lon="17.3489998"><ele>439.0</ele><time>2026-04-03T16:13:09.468Z</time></trkpt><trkpt lat="40.6921096" lon="17.3490419"><ele>439.0</ele><time>2026-04-03T16:13:10.469Z</time></trkpt><trkpt lat="40.691968" lon="17.3490837"><ele>439.0</ele><time>2026-04-03T16:13:11.468Z</time></trkpt><trkpt lat="40.6918257" lon="17.3491269"><ele>437.33333333333337</ele><time>2026-04-03T16:13:12.468Z</time></trkpt><trkpt lat="40.6916605" lon="17.3491737"><ele>435.66666666666663</ele><time>2026-04-03T16:13:13.469Z</time></trkpt><trkpt lat="40.6914991" lon="17.3492234"><ele>434.0</ele><time>2026-04-03T16:13:14.469Z</time></trkpt><trkpt lat="40.6913378" lon="17.3492627"><ele>434.0</ele><time>2026-04-03T16:13:15.468Z</time></trkpt><trkpt lat="40.6911833" lon="17.3493174"><ele>434.0</ele><time>2026-04-03T16:13:16.468Z</time></trkpt><trkpt lat="40.6910095" lon="17.3493583"><ele>434.0</ele><time>2026-04-03T16:13:17.467Z</time></trkpt><trkpt lat="40.6908581" lon="17.3494223"><ele>433.66666666666663</ele><time>2026-04-03T16:13:18.468Z</time></trkpt><trkpt lat="40.6907006" lon="17.3494985"><ele>433.33333333333337</ele><time>2026-04-03T16:13:19.468Z</time></trkpt><trkpt lat="40.6905544" lon="17.3495604"><ele>433.0</ele><time>2026-04-03T16:13:20.469Z</time></trkpt><trkpt lat="40.6904106" lon="17.3496212"><ele>433.0</ele><time>2026-04-03T16:13:21.468Z</time></trkpt><trkpt lat="40.6902602" lon="17.3496849"><ele>433.0</ele><time>2026-04-03T16:13:22.469Z</time></trkpt><trkpt lat="40.6901073" lon="17.3497429"><ele>433.0</ele><time>2026-04-03T16:13:23.469Z</time></trkpt><trkpt lat="40.6899395" lon="17.3498091"><ele>432.0</ele><time>2026-04-03T16:13:24.469Z</time></trkpt><trkpt lat="40.6897656" lon="17.349877"><ele>431.0</ele><time>2026-04-03T16:13:25.468Z</time></trkpt><trkpt lat="40.6896144" lon="17.3499403"><ele>430.0</ele><time>2026-04-03T16:13:26.467Z</time></trkpt><trkpt lat="40.6894671" lon="17.3500042"><ele>429.0</ele><time>2026-04-03T16:13:27.468Z</time></trkpt><trkpt lat="40.6893365" lon="17.3500996"><ele>428.0</ele><time>2026-04-03T16:13:28.468Z</time></trkpt><trkpt lat="40.6892168" lon="17.3502133"><ele>427.0</ele><time>2026-04-03T16:13:29.468Z</time></trkpt><trkpt lat="40.6891131" lon="17.3503669"><ele>427.0</ele><time>2026-04-03T16:13:30.468Z</time></trkpt><trkpt lat="40.6890209" lon="17.3505285"><ele>427.0</ele><time>2026-04-03T16:13:31.468Z</time></trkpt><trkpt lat="40.6889326" lon="17.3506906"><ele>427.0</ele><time>2026-04-03T16:13:32.467Z</time></trkpt><trkpt lat="40.6888321" lon="17.3508474"><ele>426.5</ele><time>2026-04-03T16:13:33.468Z</time></trkpt><trkpt lat="40.6887252" lon="17.3509808"><ele>426.0</ele><time>2026-04-03T16:13:34.468Z</time></trkpt><trkpt lat="40.6885997" lon="17.3510891"><ele>425.5</ele><time>2026-04-03T16:13:35.469Z</time></trkpt><trkpt lat="40.6884567" lon="17.3511366"><ele>425.0</ele><time>2026-04-03T16:13:36.469Z</time></trkpt><trkpt lat="40.6883" lon="17.3511551"><ele>424.0</ele><time>2026-04-03T16:13:37.468Z</time></trkpt><trkpt lat="40.6881569" lon="17.3511493"><ele>423.0</ele><time>2026-04-03T16:13:38.467Z</time></trkpt><trkpt lat="40.6880044" lon="17.3511207"><ele>422.0</ele><time>2026-04-03T16:13:39.467Z</time></trkpt><trkpt lat="40.6878227" lon="17.3510788"><ele>419.66666666666663</ele><time>2026-04-03T16:13:40.467Z</time></trkpt><trkpt lat="40.687648" lon="17.3510234"><ele>417.33333333333337</ele><time>2026-04-03T16:13:41.467Z</time></trkpt><trkpt lat="40.6874524" lon="17.3509526"><ele>415.0</ele><time>2026-04-03T16:13:42.468Z</time></trkpt><trkpt lat="40.6872707" lon="17.3508895"><ele>415.0</ele><time>2026-04-03T16:13:43.469Z</time></trkpt><trkpt lat="40.6870805" lon="17.350832"><ele>415.0</ele><time>2026-04-03T16:13:44.468Z</time></trkpt><trkpt lat="40.6869041" lon="17.3507643"><ele>415.0</ele><time>2026-04-03T16:13:45.467Z</time></trkpt><trkpt lat="40.6867194" lon="17.3507129"><ele>413.6666666666667</ele><time>2026-04-03T16:13:46.469Z</time></trkpt><trkpt lat="40.6865359" lon="17.3506501"><ele>412.33333333333337</ele><time>2026-04-03T16:13:47.468Z</time></trkpt><trkpt lat="40.6863721" lon="17.3506095"><ele>411.0</ele><time>2026-04-03T16:13:48.468Z</time></trkpt><trkpt lat="40.6862204" lon="17.3505361"><ele>409.75</ele><time>2026-04-03T16:13:49.468Z</time></trkpt><trkpt lat="40.6860718" lon="17.3505057"><ele>408.5</ele><time>2026-04-03T16:13:50.468Z</time></trkpt><trkpt lat="40.6859647" lon="17.350506"><ele>407.25</ele><time>2026-04-03T16:13:51.468Z</time></trkpt><trkpt lat="40.6858323" lon="17.3505642"><ele>406.0</ele><time>2026-04-03T16:13:52.468Z</time></trkpt><trkpt lat="40.6857373" lon="17.3506217"><ele>406.0</ele><time>2026-04-03T16:13:53.468Z</time></trkpt><trkpt lat="40.6855992" lon="17.3507247"><ele>406.0</ele><time>2026-04-03T16:13:54.467Z</time></trkpt><trkpt lat="40.685471" lon="17.3508642"><ele>406.0</ele><time>2026-04-03T16:13:55.467Z</time></trkpt><trkpt lat="40.6853378" lon="17.3509615"><ele>405.0</ele><time>2026-04-03T16:13:56.468Z</time></trkpt><trkpt lat="40.6852093" lon="17.3510664"><ele>404.0</ele><time>2026-04-03T16:13:57.468Z</time></trkpt><trkpt lat="40.6850875" lon="17.3511589"><ele>403.0</ele><time>2026-04-03T16:13:58.469Z</time></trkpt><trkpt lat="40.6849594" lon="17.3512314"><ele>402.0</ele><time>2026-04-03T16:13:59.469Z</time></trkpt><trkpt lat="40.6848247" lon="17.3512977"><ele>402.0</ele><time>2026-04-03T16:14:00.468Z</time></trkpt><trkpt lat="40.6846695" lon="17.3513523"><ele>402.0</ele><time>2026-04-03T16:14:01.469Z</time></trkpt><trkpt lat="40.684517" lon="17.3513919"><ele>402.0</ele><time>2026-04-03T16:14:02.469Z</time></trkpt><trkpt lat="40.6843399" lon="17.3514372"><ele>404.33333333333337</ele><time>2026-04-03T16:14:03.468Z</time></trkpt><trkpt lat="40.6841769" lon="17.3514756"><ele>406.6666666666667</ele><time>2026-04-03T16:14:04.469Z</time></trkpt><trkpt lat="40.6840013" lon="17.3515199"><ele>409.0</ele><time>2026-04-03T16:14:05.468Z</time></trkpt><trkpt lat="40.6838366" lon="17.3515699"><ele>409.0</ele><time>2026-04-03T16:14:06.468Z</time></trkpt><trkpt lat="40.68367" lon="17.3516369"><ele>409.0</ele><time>2026-04-03T16:14:07.468Z</time></trkpt><trkpt lat="40.6835149" lon="17.3517253"><ele>409.0</ele><time>2026-04-03T16:14:08.469Z</time></trkpt><trkpt lat="40.6833596" lon="17.351837"><ele>409.6666666666667</ele><time>2026-04-03T16:14:09.468Z</time></trkpt><trkpt lat="40.6832235" lon="17.3519717"><ele>410.33333333333337</ele><time>2026-04-03T16:14:10.468Z</time></trkpt><trkpt lat="40.6830875" lon="17.3521185"><ele>411.0</ele><time>2026-04-03T16:14:11.468Z</time></trkpt><trkpt lat="40.6829618" lon="17.3522768"><ele>411.66666666666663</ele><time>2026-04-03T16:14:12.468Z</time></trkpt><trkpt lat="40.6828437" lon="17.352451"><ele>412.3333333333333</ele><time>2026-04-03T16:14:13.469Z</time></trkpt><trkpt lat="40.682737" lon="17.3526265"><ele>413.0</ele><time>2026-04-03T16:14:14.468Z</time></trkpt><trkpt lat="40.6826323" lon="17.3528098"><ele>413.0</ele><time>2026-04-03T16:14:15.469Z</time></trkpt><trkpt lat="40.6825267" lon="17.3529915"><ele>413.0</ele><time>2026-04-03T16:14:16.469Z</time></trkpt><trkpt lat="40.6824234" lon="17.3531704"><ele>413.0</ele><time>2026-04-03T16:14:17.468Z</time></trkpt><trkpt lat="40.6823144" lon="17.3533506"><ele>411.66666666666663</ele><time>2026-04-03T16:14:18.469Z</time></trkpt><trkpt lat="40.6822124" lon="17.3535314"><ele>410.33333333333337</ele><time>2026-04-03T16:14:19.468Z</time></trkpt><trkpt lat="40.6821168" lon="17.3537036"><ele>409.0</ele><time>2026-04-03T16:14:20.468Z</time></trkpt><trkpt lat="40.6819992" lon="17.3538653"><ele>406.0</ele><time>2026-04-03T16:14:21.469Z</time></trkpt><trkpt lat="40.6818612" lon="17.3540278"><ele>403.0</ele><time>2026-04-03T16:14:22.469Z</time></trkpt><trkpt lat="40.6817132" lon="17.3541771"><ele>400.0</ele><time>2026-04-03T16:14:23.467Z</time></trkpt><trkpt lat="40.6815599" lon="17.3543262"><ele>400.0</ele><time>2026-04-03T16:14:24.467Z</time></trkpt><trkpt lat="40.6814071" lon="17.3544769"><ele>400.0</ele><time>2026-04-03T16:14:25.468Z</time></trkpt><trkpt lat="40.6812639" lon="17.3546324"><ele>400.0</ele><time>2026-04-03T16:14:26.469Z</time></trkpt><trkpt lat="40.681123" lon="17.3547919"><ele>398.33333333333337</ele><time>2026-04-03T16:14:27.469Z</time></trkpt><trkpt lat="40.6809831" lon="17.3549459"><ele>396.66666666666663</ele><time>2026-04-03T16:14:28.467Z</time></trkpt><trkpt lat="40.680844" lon="17.3550871"><ele>395.0</ele><time>2026-04-03T16:14:29.467Z</time></trkpt><trkpt lat="40.6807079" lon="17.3552383"><ele>395.0</ele><time>2026-04-03T16:14:30.469Z</time></trkpt><trkpt lat="40.6805703" lon="17.3553839"><ele>395.0</ele><time>2026-04-03T16:14:31.468Z</time></trkpt><trkpt lat="40.6804362" lon="17.3555309"><ele>395.0</ele><time>2026-04-03T16:14:32.469Z</time></trkpt><trkpt lat="40.6802976" lon="17.3556746"><ele>394.5</ele><time>2026-04-03T16:14:33.468Z</time></trkpt><trkpt lat="40.6801672" lon="17.3558007"><ele>394.0</ele><time>2026-04-03T16:14:34.468Z</time></trkpt><trkpt lat="40.6800482" lon="17.355899"><ele>393.5</ele><time>2026-04-03T16:14:35.468Z</time></trkpt><trkpt lat="40.679948" lon="17.3559788"><ele>393.0</ele><time>2026-04-03T16:14:36.469Z</time></trkpt><trkpt lat="40.679851" lon="17.3560362"><ele>393.0</ele><time>2026-04-03T16:14:37.469Z</time></trkpt><trkpt lat="40.6797624" lon="17.3560943"><ele>393.0</ele><time>2026-04-03T16:14:38.468Z</time></trkpt><trkpt lat="40.6796815" lon="17.3561233"><ele>393.0</ele><time>2026-04-03T16:14:39.468Z</time></trkpt><trkpt lat="40.6795795" lon="17.3561564"><ele>393.0</ele><time>2026-04-03T16:14:40.468Z</time></trkpt><trkpt lat="40.6794568" lon="17.3561945"><ele>393.0</ele><time>2026-04-03T16:14:41.467Z</time></trkpt><trkpt lat="40.6793261" lon="17.3562284"><ele>392.5</ele><time>2026-04-03T16:14:42.469Z</time></trkpt><trkpt lat="40.6791795" lon="17.3562523"><ele>392.0</ele><time>2026-04-03T16:14:43.468Z</time></trkpt><trkpt lat="40.6790245" lon="17.3562914"><ele>391.5</ele><time>2026-04-03T16:14:44.469Z</time></trkpt><trkpt lat="40.6788855" lon="17.3563321"><ele>391.0</ele><time>2026-04-03T16:14:45.468Z</time></trkpt><trkpt lat="40.678755" lon="17.3563701"><ele>391.0</ele><time>2026-04-03T16:14:46.467Z</time></trkpt><trkpt lat="40.67865" lon="17.3564275"><ele>391.0</ele><time>2026-04-03T16:14:47.469Z</time></trkpt><trkpt lat="40.6785482" lon="17.3565268"><ele>391.0</ele><time>2026-04-03T16:14:48.468Z</time></trkpt><trkpt lat="40.6784587" lon="17.3566425"><ele>391.0</ele><time>2026-04-03T16:14:49.469Z</time></trkpt><trkpt lat="40.6783821" lon="17.3568074"><ele>392.33333333333337</ele><time>2026-04-03T16:14:50.468Z</time></trkpt><trkpt lat="40.6783143" lon="17.3569769"><ele>393.66666666666663</ele><time>2026-04-03T16:14:51.468Z</time></trkpt><trkpt lat="40.6782465" lon="17.3571745"><ele>395.0</ele><time>2026-04-03T16:14:52.467Z</time></trkpt><trkpt lat="40.6781878" lon="17.3573948"><ele>395.0</ele><time>2026-04-03T16:14:53.468Z</time></trkpt><trkpt lat="40.6781305" lon="17.3576101"><ele>395.0</ele><time>2026-04-03T16:14:54.468Z</time></trkpt><trkpt lat="40.6780894" lon="17.3578117"><ele>395.0</ele><time>2026-04-03T16:14:55.469Z</time></trkpt><trkpt lat="40.678042" lon="17.3579997"><ele>394.5</ele><time>2026-04-03T16:14:56.467Z</time></trkpt><trkpt lat="40.677982" lon="17.3581847"><ele>394.0</ele><time>2026-04-03T16:14:57.469Z</time></trkpt><trkpt lat="40.6779033" lon="17.3583479"><ele>393.5</ele><time>2026-04-03T16:14:58.468Z</time></trkpt><trkpt lat="40.6778227" lon="17.3584796"><ele>393.0</ele><time>2026-04-03T16:14:59.468Z</time></trkpt><trkpt lat="40.6776818" lon="17.3585813"><ele>395.0</ele><time>2026-04-03T16:15:00.468Z</time></trkpt><trkpt lat="40.677541" lon="17.3586561"><ele>397.0</ele><time>2026-04-03T16:15:01.469Z</time></trkpt><trkpt lat="40.6773984" lon="17.3587151"><ele>399.0</ele><time>2026-04-03T16:15:02.469Z</time></trkpt><trkpt lat="40.6772398" lon="17.3587911"><ele>399.0</ele><time>2026-04-03T16:15:03.467Z</time></trkpt><trkpt lat="40.6770845" lon="17.3588528"><ele>399.0</ele><time>2026-04-03T16:15:04.469Z</time></trkpt><trkpt lat="40.6769683" lon="17.358932"><ele>399.0</ele><time>2026-04-03T16:15:05.469Z</time></trkpt><trkpt lat="40.6768387" lon="17.3590261"><ele>399.0</ele><time>2026-04-03T16:15:06.468Z</time></trkpt><trkpt lat="40.6767531" lon="17.3591471"><ele>400.5</ele><time>2026-04-03T16:15:07.469Z</time></trkpt><trkpt lat="40.6766801" lon="17.3592871"><ele>402.0</ele><time>2026-04-03T16:15:08.467Z</time></trkpt><trkpt lat="40.6766301" lon="17.3594477"><ele>403.5</ele><time>2026-04-03T16:15:09.467Z</time></trkpt><trkpt lat="40.6765755" lon="17.3596682"><ele>405.0</ele><time>2026-04-03T16:15:10.468Z</time></trkpt><trkpt lat="40.6765326" lon="17.3598748"><ele>405.33333333333337</ele><time>2026-04-03T16:15:11.467Z</time></trkpt><trkpt lat="40.6764856" lon="17.3600836"><ele>405.6666666666667</ele><time>2026-04-03T16:15:12.468Z</time></trkpt><trkpt lat="40.6764422" lon="17.3602889"><ele>406.0</ele><time>2026-04-03T16:15:13.469Z</time></trkpt><trkpt lat="40.6763883" lon="17.3604769"><ele>406.75</ele><time>2026-04-03T16:15:14.468Z</time></trkpt><trkpt lat="40.6763228" lon="17.3606304"><ele>407.5</ele><time>2026-04-03T16:15:15.468Z</time></trkpt><trkpt lat="40.6762317" lon="17.3608031"><ele>408.25</ele><time>2026-04-03T16:15:16.468Z</time></trkpt><trkpt lat="40.6761479" lon="17.3609563"><ele>409.0</ele><time>2026-04-03T16:15:17.468Z</time></trkpt><trkpt lat="40.6760513" lon="17.3611326"><ele>409.5</ele><time>2026-04-03T16:15:18.469Z</time></trkpt><trkpt lat="40.6759845" lon="17.3612536"><ele>410.0</ele><time>2026-04-03T16:15:19.469Z</time></trkpt><trkpt lat="40.6758944" lon="17.3614155"><ele>410.5</ele><time>2026-04-03T16:15:20.469Z</time></trkpt><trkpt lat="40.6757742" lon="17.3615405"><ele>411.0</ele><time>2026-04-03T16:15:21.469Z</time></trkpt><trkpt lat="40.6756825" lon="17.361696"><ele>411.33333333333337</ele><time>2026-04-03T16:15:22.467Z</time></trkpt><trkpt lat="40.6755513" lon="17.3618566"><ele>411.6666666666667</ele><time>2026-04-03T16:15:23.469Z</time></trkpt><trkpt lat="40.6754161" lon="17.3620119"><ele>412.0</ele><time>2026-04-03T16:15:24.468Z</time></trkpt><trkpt lat="40.6752745" lon="17.3621255"><ele>411.33333333333337</ele><time>2026-04-03T16:15:25.468Z</time></trkpt><trkpt lat="40.6751316" lon="17.362222"><ele>410.66666666666663</ele><time>2026-04-03T16:15:26.468Z</time></trkpt><trkpt lat="40.6749657" lon="17.3623388"><ele>410.0</ele><time>2026-04-03T16:15:27.468Z</time></trkpt><trkpt lat="40.674796" lon="17.362413"><ele>410.0</ele><time>2026-04-03T16:15:28.468Z</time></trkpt><trkpt lat="40.6746348" lon="17.3624393"><ele>410.0</ele><time>2026-04-03T16:15:29.468Z</time></trkpt><trkpt lat="40.6744573" lon="17.3624809"><ele>410.0</ele><time>2026-04-03T16:15:30.468Z</time></trkpt><trkpt lat="40.6742676" lon="17.3624972"><ele>410.3333333333333</ele><time>2026-04-03T16:15:31.468Z</time></trkpt><trkpt lat="40.6740614" lon="17.3625288"><ele>410.66666666666663</ele><time>2026-04-03T16:15:32.467Z</time></trkpt><trkpt lat="40.6738508" lon="17.3625616"><ele>411.0</ele><time>2026-04-03T16:15:33.467Z</time></trkpt><trkpt lat="40.6736658" lon="17.3625978"><ele>412.66666666666663</ele><time>2026-04-03T16:15:34.468Z</time></trkpt><trkpt lat="40.6734496" lon="17.3626208"><ele>414.3333333333333</ele><time>2026-04-03T16:15:35.469Z</time></trkpt><trkpt lat="40.6732915" lon="17.3626517"><ele>416.0</ele><time>2026-04-03T16:15:36.468Z</time></trkpt><trkpt lat="40.6731327" lon="17.3627062"><ele>416.0</ele><time>2026-04-03T16:15:37.468Z</time></trkpt><trkpt lat="40.6729793" lon="17.3627579"><ele>416.0</ele><time>2026-04-03T16:15:38.468Z</time></trkpt><trkpt lat="40.6728383" lon="17.3628016"><ele>416.0</ele><time>2026-04-03T16:15:39.467Z</time></trkpt><trkpt lat="40.6726721" lon="17.3628609"><ele>416.20000000000005</ele><time>2026-04-03T16:15:40.467Z</time></trkpt><trkpt lat="40.6725436" lon="17.3629254"><ele>416.40000000000003</ele><time>2026-04-03T16:15:41.468Z</time></trkpt><trkpt lat="40.6724621" lon="17.3629793"><ele>416.6</ele><time>2026-04-03T16:15:42.469Z</time></trkpt><trkpt lat="40.6723693" lon="17.3630408"><ele>416.8</ele><time>2026-04-03T16:15:43.468Z</time></trkpt><trkpt lat="40.6723152" lon="17.3630916"><ele>417.0</ele><time>2026-04-03T16:15:44.468Z</time></trkpt><trkpt lat="40.6722106" lon="17.3631784"><ele>417.0</ele><time>2026-04-03T16:15:46.468Z</time></trkpt><trkpt lat="40.6721521" lon="17.3632306"><ele>417.0</ele><time>2026-04-03T16:15:47.468Z</time></trkpt><trkpt lat="40.6720869" lon="17.3632901"><ele>417.0</ele><time>2026-04-03T16:15:48.467Z</time></trkpt><trkpt lat="40.6720181" lon="17.3633634"><ele>417.0</ele><time>2026-04-03T16:15:49.467Z</time></trkpt><trkpt lat="40.6719395" lon="17.3634611"><ele>417.0</ele><time>2026-04-03T16:15:50.468Z</time></trkpt><trkpt lat="40.6718568" lon="17.3635623"><ele>418.0</ele><time>2026-04-03T16:15:51.468Z</time></trkpt><trkpt lat="40.6717611" lon="17.3636875"><ele>419.0</ele><time>2026-04-03T16:15:52.469Z</time></trkpt><trkpt lat="40.6716571" lon="17.3638265"><ele>420.0</ele><time>2026-04-03T16:15:53.468Z</time></trkpt><trkpt lat="40.6715522" lon="17.3639707"><ele>421.0</ele><time>2026-04-03T16:15:54.468Z</time></trkpt><trkpt lat="40.6714384" lon="17.3641267"><ele>421.33333333333337</ele><time>2026-04-03T16:15:55.467Z</time></trkpt><trkpt lat="40.6713284" lon="17.3642876"><ele>421.66666666666663</ele><time>2026-04-03T16:15:56.468Z</time></trkpt><trkpt lat="40.6712177" lon="17.3644695"><ele>422.0</ele><time>2026-04-03T16:15:57.469Z</time></trkpt><trkpt lat="40.671106" lon="17.3646638"><ele>424.0</ele><time>2026-04-03T16:15:58.469Z</time></trkpt><trkpt lat="40.6709924" lon="17.364877"><ele>426.0</ele><time>2026-04-03T16:15:59.469Z</time></trkpt><trkpt lat="40.6708805" lon="17.3650835"><ele>428.0</ele><time>2026-04-03T16:16:00.469Z</time></trkpt><trkpt lat="40.6707707" lon="17.3652892"><ele>428.0</ele><time>2026-04-03T16:16:01.469Z</time></trkpt><trkpt lat="40.6706608" lon="17.3654937"><ele>428.0</ele><time>2026-04-03T16:16:02.469Z</time></trkpt><trkpt lat="40.6705439" lon="17.3656984"><ele>428.0</ele><time>2026-04-03T16:16:03.469Z</time></trkpt><trkpt lat="40.6704141" lon="17.3659099"><ele>428.0</ele><time>2026-04-03T16:16:04.468Z</time></trkpt><trkpt lat="40.6703054" lon="17.3661114"><ele>428.0</ele><time>2026-04-03T16:16:05.467Z</time></trkpt><trkpt lat="40.6701935" lon="17.3663113"><ele>428.0</ele><time>2026-04-03T16:16:06.468Z</time></trkpt><trkpt lat="40.6700788" lon="17.3665089"><ele>428.66666666666663</ele><time>2026-04-03T16:16:07.468Z</time></trkpt><trkpt lat="40.669964" lon="17.3667007"><ele>429.33333333333337</ele><time>2026-04-03T16:16:08.467Z</time></trkpt><trkpt lat="40.6698339" lon="17.3668853"><ele>430.0</ele><time>2026-04-03T16:16:09.469Z</time></trkpt><trkpt lat="40.669689" lon="17.3670476"><ele>430.0</ele><time>2026-04-03T16:16:10.468Z</time></trkpt><trkpt lat="40.6695302" lon="17.3671853"><ele>430.0</ele><time>2026-04-03T16:16:11.468Z</time></trkpt><trkpt lat="40.6693602" lon="17.367305"><ele>430.0</ele><time>2026-04-03T16:16:12.468Z</time></trkpt><trkpt lat="40.669187" lon="17.3674072"><ele>429.6666666666667</ele><time>2026-04-03T16:16:13.468Z</time></trkpt><trkpt lat="40.6690291" lon="17.3674912"><ele>429.33333333333337</ele><time>2026-04-03T16:16:14.468Z</time></trkpt><trkpt lat="40.6688729" lon="17.3675676"><ele>429.0</ele><time>2026-04-03T16:16:15.467Z</time></trkpt><trkpt lat="40.6686871" lon="17.3676256"><ele>428.33333333333337</ele><time>2026-04-03T16:16:16.468Z</time></trkpt><trkpt lat="40.6685249" lon="17.3676489"><ele>427.6666666666667</ele><time>2026-04-03T16:16:17.469Z</time></trkpt><trkpt lat="40.6683507" lon="17.3676709"><ele>427.0</ele><time>2026-04-03T16:16:18.469Z</time></trkpt><trkpt lat="40.6681701" lon="17.3676682"><ele>427.0</ele><time>2026-04-03T16:16:19.469Z</time></trkpt><trkpt lat="40.6679856" lon="17.3676837"><ele>427.0</ele><time>2026-04-03T16:16:20.467Z</time></trkpt><trkpt lat="40.6678056" lon="17.367698"><ele>427.0</ele><time>2026-04-03T16:16:21.469Z</time></trkpt><trkpt lat="40.6676345" lon="17.3677265"><ele>426.33333333333337</ele><time>2026-04-03T16:16:22.469Z</time></trkpt><trkpt lat="40.6674694" lon="17.3678098"><ele>425.66666666666663</ele><time>2026-04-03T16:16:23.469Z</time></trkpt><trkpt lat="40.6673243" lon="17.3678993"><ele>425.0</ele><time>2026-04-03T16:16:24.468Z</time></trkpt><trkpt lat="40.6671607" lon="17.3680415"><ele>425.0</ele><time>2026-04-03T16:16:25.468Z</time></trkpt><trkpt lat="40.6670016" lon="17.368184"><ele>425.0</ele><time>2026-04-03T16:16:26.468Z</time></trkpt><trkpt lat="40.6668425" lon="17.3683248"><ele>425.0</ele><time>2026-04-03T16:16:27.468Z</time></trkpt><trkpt lat="40.6666948" lon="17.3684617"><ele>423.66666666666663</ele><time>2026-04-03T16:16:28.469Z</time></trkpt><trkpt lat="40.666535" lon="17.3685954"><ele>422.33333333333337</ele><time>2026-04-03T16:16:29.468Z</time></trkpt><trkpt lat="40.6663724" lon="17.3687371"><ele>421.0</ele><time>2026-04-03T16:16:30.468Z</time></trkpt><trkpt lat="40.6662047" lon="17.3688746"><ele>419.6666666666667</ele><time>2026-04-03T16:16:31.468Z</time></trkpt><trkpt lat="40.6660375" lon="17.3690174"><ele>418.33333333333337</ele><time>2026-04-03T16:16:32.469Z</time></trkpt><trkpt lat="40.66588" lon="17.3691613"><ele>417.0</ele><time>2026-04-03T16:16:33.469Z</time></trkpt><trkpt lat="40.6657288" lon="17.3693151"><ele>417.0</ele><time>2026-04-03T16:16:34.467Z</time></trkpt><trkpt lat="40.6655836" lon="17.3694788"><ele>417.0</ele><time>2026-04-03T16:16:35.468Z</time></trkpt><trkpt lat="40.6654534" lon="17.3696373"><ele>417.0</ele><time>2026-04-03T16:16:36.468Z</time></trkpt><trkpt lat="40.6653302" lon="17.3697998"><ele>415.33333333333337</ele><time>2026-04-03T16:16:37.469Z</time></trkpt><trkpt lat="40.6652149" lon="17.3699637"><ele>413.6666666666667</ele><time>2026-04-03T16:16:38.468Z</time></trkpt><trkpt lat="40.6651012" lon="17.3701331"><ele>412.0</ele><time>2026-04-03T16:16:39.469Z</time></trkpt><trkpt lat="40.6649743" lon="17.3703138"><ele>412.0</ele><time>2026-04-03T16:16:40.467Z</time></trkpt><trkpt lat="40.6648347" lon="17.3705003"><ele>412.0</ele><time>2026-04-03T16:16:41.469Z</time></trkpt><trkpt lat="40.6646914" lon="17.3706887"><ele>412.0</ele><time>2026-04-03T16:16:42.468Z</time></trkpt><trkpt lat="40.6645377" lon="17.3708943"><ele>410.33333333333337</ele><time>2026-04-03T16:16:43.467Z</time></trkpt><trkpt lat="40.6643903" lon="17.3710977"><ele>408.66666666666663</ele><time>2026-04-03T16:16:44.469Z</time></trkpt><trkpt lat="40.6642391" lon="17.371299"><ele>407.0</ele><time>2026-04-03T16:16:45.469Z</time></trkpt><trkpt lat="40.6640963" lon="17.3714968"><ele>406.3333333333333</ele><time>2026-04-03T16:16:46.469Z</time></trkpt><trkpt lat="40.6639519" lon="17.3716973"><ele>405.66666666666663</ele><time>2026-04-03T16:16:47.467Z</time></trkpt><trkpt lat="40.6638031" lon="17.3719023"><ele>405.0</ele><time>2026-04-03T16:16:48.469Z</time></trkpt><trkpt lat="40.6636606" lon="17.3720977"><ele>403.33333333333337</ele><time>2026-04-03T16:16:49.468Z</time></trkpt><trkpt lat="40.6635206" lon="17.3722841"><ele>401.6666666666667</ele><time>2026-04-03T16:16:50.468Z</time></trkpt><trkpt lat="40.6633852" lon="17.3724698"><ele>400.0</ele><time>2026-04-03T16:16:51.469Z</time></trkpt><trkpt lat="40.663238" lon="17.3726579"><ele>400.0</ele><time>2026-04-03T16:16:52.469Z</time></trkpt><trkpt lat="40.6630863" lon="17.3728229"><ele>400.0</ele><time>2026-04-03T16:16:53.468Z</time></trkpt><trkpt lat="40.662927" lon="17.3729754"><ele>400.0</ele><time>2026-04-03T16:16:54.469Z</time></trkpt><trkpt lat="40.6627606" lon="17.3731185"><ele>398.33333333333337</ele><time>2026-04-03T16:16:55.468Z</time></trkpt><trkpt lat="40.6625959" lon="17.3732622"><ele>396.66666666666663</ele><time>2026-04-03T16:16:56.467Z</time></trkpt><trkpt lat="40.6624309" lon="17.3734025"><ele>395.0</ele><time>2026-04-03T16:16:57.467Z</time></trkpt><trkpt lat="40.6622815" lon="17.3735678"><ele>395.0</ele><time>2026-04-03T16:16:58.469Z</time></trkpt><trkpt lat="40.6621441" lon="17.3737721"><ele>395.0</ele><time>2026-04-03T16:16:59.469Z</time></trkpt><trkpt lat="40.662027" lon="17.3739847"><ele>395.0</ele><time>2026-04-03T16:17:00.468Z</time></trkpt><trkpt lat="40.66191" lon="17.3742207"><ele>394.0</ele><time>2026-04-03T16:17:01.468Z</time></trkpt><trkpt lat="40.6617863" lon="17.3744597"><ele>393.0</ele><time>2026-04-03T16:17:02.467Z</time></trkpt><trkpt lat="40.6616684" lon="17.3746996"><ele>392.0</ele><time>2026-04-03T16:17:03.468Z</time></trkpt><trkpt lat="40.6615545" lon="17.3749279"><ele>390.66666666666663</ele><time>2026-04-03T16:17:04.469Z</time></trkpt><trkpt lat="40.661442" lon="17.3751474"><ele>389.33333333333337</ele><time>2026-04-03T16:17:05.469Z</time></trkpt><trkpt lat="40.6613318" lon="17.3753618"><ele>388.0</ele><time>2026-04-03T16:17:06.469Z</time></trkpt><trkpt lat="40.6612399" lon="17.3755465"><ele>387.25</ele><time>2026-04-03T16:17:07.468Z</time></trkpt><trkpt lat="40.661152" lon="17.375719"><ele>386.5</ele><time>2026-04-03T16:17:08.467Z</time></trkpt><trkpt lat="40.6610776" lon="17.3758394"><ele>385.75</ele><time>2026-04-03T16:17:09.468Z</time></trkpt><trkpt lat="40.6610062" lon="17.375921"><ele>385.0</ele><time>2026-04-03T16:17:10.468Z</time></trkpt><trkpt lat="40.6608515" lon="17.3759268"><ele>385.0</ele><time>2026-04-03T16:17:12.469Z</time></trkpt><trkpt lat="40.6607451" lon="17.3759212"><ele>385.0</ele><time>2026-04-03T16:17:13.468Z</time></trkpt><trkpt lat="40.6606429" lon="17.3759125"><ele>385.0</ele><time>2026-04-03T16:17:14.467Z</time></trkpt><trkpt lat="40.6605391" lon="17.3758979"><ele>385.0</ele><time>2026-04-03T16:17:15.469Z</time></trkpt><trkpt lat="40.6604334" lon="17.375885"><ele>385.0</ele><time>2026-04-03T16:17:16.469Z</time></trkpt><trkpt lat="40.6603298" lon="17.3758746"><ele>384.8</ele><time>2026-04-03T16:17:17.469Z</time></trkpt><trkpt lat="40.6602302" lon="17.3758736"><ele>384.6</ele><time>2026-04-03T16:17:18.468Z</time></trkpt><trkpt lat="40.6601267" lon="17.3758744"><ele>384.4</ele><time>2026-04-03T16:17:19.467Z</time></trkpt><trkpt lat="40.6600285" lon="17.3758735"><ele>384.2</ele><time>2026-04-03T16:17:20.468Z</time></trkpt><trkpt lat="40.659934" lon="17.3758707"><ele>384.0</ele><time>2026-04-03T16:17:21.468Z</time></trkpt><trkpt lat="40.6598401" lon="17.3758646"><ele>384.0</ele><time>2026-04-03T16:17:22.468Z</time></trkpt><trkpt lat="40.6597584" lon="17.3758431"><ele>384.0</ele><time>2026-04-03T16:17:23.469Z</time></trkpt><trkpt lat="40.6596707" lon="17.3758139"><ele>384.0</ele><time>2026-04-03T16:17:24.467Z</time></trkpt><trkpt lat="40.6595796" lon="17.3757755"><ele>384.0</ele><time>2026-04-03T16:17:25.468Z</time></trkpt><trkpt lat="40.6595023" lon="17.3757344"><ele>384.0</ele><time>2026-04-03T16:17:26.469Z</time></trkpt><trkpt lat="40.6594266" lon="17.3756674"><ele>384.0</ele><time>2026-04-03T16:17:27.467Z</time></trkpt><trkpt lat="40.6593769" lon="17.3755884"><ele>383.4</ele><time>2026-04-03T16:17:28.468Z</time></trkpt><trkpt lat="40.6593352" lon="17.3755095"><ele>382.79999999999995</ele><time>2026-04-03T16:17:29.468Z</time></trkpt><trkpt lat="40.6593016" lon="17.3754315"><ele>382.20000000000005</ele><time>2026-04-03T16:17:30.469Z</time></trkpt><trkpt lat="40.6592558" lon="17.3753738"><ele>381.6</ele><time>2026-04-03T16:17:31.467Z</time></trkpt><trkpt lat="40.6591763" lon="17.3753162"><ele>381.0</ele><time>2026-04-03T16:17:33.466Z</time></trkpt><trkpt lat="40.6590185" lon="17.3753937"><ele>381.0</ele><time>2026-04-03T16:17:35.466Z</time></trkpt><trkpt lat="40.6589173" lon="17.3754453"><ele>381.0</ele><time>2026-04-03T16:17:36.467Z</time></trkpt><trkpt lat="40.6588058" lon="17.3754687"><ele>381.0</ele><time>2026-04-03T16:17:37.468Z</time></trkpt><trkpt lat="40.6586877" lon="17.3754911"><ele>381.0</ele><time>2026-04-03T16:17:38.466Z</time></trkpt><trkpt lat="40.6585653" lon="17.3755065"><ele>380.20000000000005</ele><time>2026-04-03T16:17:39.467Z</time></trkpt><trkpt lat="40.6584399" lon="17.3755258"><ele>379.40000000000003</ele><time>2026-04-03T16:17:40.467Z</time></trkpt><trkpt lat="40.6583273" lon="17.3755382"><ele>378.6</ele><time>2026-04-03T16:17:41.468Z</time></trkpt><trkpt lat="40.6582318" lon="17.375542"><ele>377.8</ele><time>2026-04-03T16:17:42.468Z</time></trkpt><trkpt lat="40.6581451" lon="17.3755314"><ele>377.0</ele><time>2026-04-03T16:17:43.467Z</time></trkpt><trkpt lat="40.6580212" lon="17.3755191"><ele>377.0</ele><time>2026-04-03T16:17:45.466Z</time></trkpt><trkpt lat="40.6579449" lon="17.3755103"><ele>377.0</ele><time>2026-04-03T16:17:46.467Z</time></trkpt><trkpt lat="40.6578628" lon="17.3754997"><ele>377.0</ele><time>2026-04-03T16:17:47.467Z</time></trkpt><trkpt lat="40.6577711" lon="17.3754851"><ele>377.0</ele><time>2026-04-03T16:17:48.467Z</time></trkpt><trkpt lat="40.6576724" lon="17.3754794"><ele>377.0</ele><time>2026-04-03T16:17:49.467Z</time></trkpt><trkpt lat="40.6575773" lon="17.375474"><ele>377.0</ele><time>2026-04-03T16:17:50.467Z</time></trkpt><trkpt lat="40.6574671" lon="17.3754691"><ele>377.20000000000005</ele><time>2026-04-03T16:17:51.466Z</time></trkpt><trkpt lat="40.6573724" lon="17.3754753"><ele>377.4</ele><time>2026-04-03T16:17:52.466Z</time></trkpt><trkpt lat="40.6572596" lon="17.3754787"><ele>377.6</ele><time>2026-04-03T16:17:53.467Z</time></trkpt><trkpt lat="40.6571525" lon="17.3754842"><ele>377.79999999999995</ele><time>2026-04-03T16:17:54.467Z</time></trkpt><trkpt lat="40.6570249" lon="17.3754824"><ele>378.0</ele><time>2026-04-03T16:17:55.468Z</time></trkpt><trkpt lat="40.6568989" lon="17.3754909"><ele>378.4</ele><time>2026-04-03T16:17:56.467Z</time></trkpt><trkpt lat="40.6567882" lon="17.3755032"><ele>378.79999999999995</ele><time>2026-04-03T16:17:57.467Z</time></trkpt><trkpt lat="40.656684" lon="17.375507"><ele>379.2</ele><time>2026-04-03T16:17:58.466Z</time></trkpt><trkpt lat="40.6565751" lon="17.3755056"><ele>379.6</ele><time>2026-04-03T16:17:59.466Z</time></trkpt><trkpt lat="40.6564631" lon="17.3755079"><ele>380.0</ele><time>2026-04-03T16:18:00.466Z</time></trkpt><trkpt lat="40.6563529" lon="17.375515"><ele>380.0</ele><time>2026-04-03T16:18:01.468Z</time></trkpt><trkpt lat="40.6562446" lon="17.3755175"><ele>380.0</ele><time>2026-04-03T16:18:02.467Z</time></trkpt><trkpt lat="40.6561237" lon="17.3755194"><ele>380.0</ele><time>2026-04-03T16:18:03.467Z</time></trkpt><trkpt lat="40.656036" lon="17.3755182"><ele>380.0</ele><time>2026-04-03T16:18:04.466Z</time></trkpt><trkpt lat="40.6559445" lon="17.3755176"><ele>380.0</ele><time>2026-04-03T16:18:05.467Z</time></trkpt><trkpt lat="40.6558426" lon="17.3754995"><ele>381.0</ele><time>2026-04-03T16:18:06.468Z</time></trkpt><trkpt lat="40.6557364" lon="17.375378"><ele>382.0</ele><time>2026-04-03T16:18:08.468Z</time></trkpt><trkpt lat="40.6556762" lon="17.3752784"><ele>383.0</ele><time>2026-04-03T16:18:09.468Z</time></trkpt><trkpt lat="40.6556093" lon="17.3751569"><ele>384.0</ele><time>2026-04-03T16:18:10.467Z</time></trkpt><trkpt lat="40.6555332" lon="17.3750186"><ele>384.0</ele><time>2026-04-03T16:18:11.468Z</time></trkpt><trkpt lat="40.6554778" lon="17.3748701"><ele>384.0</ele><time>2026-04-03T16:18:12.467Z</time></trkpt><trkpt lat="40.6554254" lon="17.3747081"><ele>384.0</ele><time>2026-04-03T16:18:13.468Z</time></trkpt><trkpt lat="40.6553473" lon="17.3745459"><ele>384.0</ele><time>2026-04-03T16:18:14.467Z</time></trkpt><trkpt lat="40.655282" lon="17.3743867"><ele>386.0</ele><time>2026-04-03T16:18:15.466Z</time></trkpt><trkpt lat="40.6552123" lon="17.3742255"><ele>388.0</ele><time>2026-04-03T16:18:16.466Z</time></trkpt><trkpt lat="40.6551471" lon="17.3740746"><ele>390.0</ele><time>2026-04-03T16:18:17.468Z</time></trkpt><trkpt lat="40.6550794" lon="17.37393"><ele>392.0</ele><time>2026-04-03T16:18:18.468Z</time></trkpt><trkpt lat="40.6550446" lon="17.3738323"><ele>392.40000000000003</ele><time>2026-04-03T16:18:19.468Z</time></trkpt><trkpt lat="40.6549931" lon="17.3737049"><ele>392.8</ele><time>2026-04-03T16:18:20.466Z</time></trkpt><trkpt lat="40.6549418" lon="17.3735795"><ele>393.2</ele><time>2026-04-03T16:18:21.466Z</time></trkpt><trkpt lat="40.6548889" lon="17.3734542"><ele>393.6</ele><time>2026-04-03T16:18:22.467Z</time></trkpt><trkpt lat="40.6548347" lon="17.3733283"><ele>394.0</ele><time>2026-04-03T16:18:23.467Z</time></trkpt><trkpt lat="40.654785" lon="17.3732141"><ele>394.0</ele><time>2026-04-03T16:18:24.467Z</time></trkpt><trkpt lat="40.6547383" lon="17.3731006"><ele>394.0</ele><time>2026-04-03T16:18:25.468Z</time></trkpt><trkpt lat="40.6546934" lon="17.3729899"><ele>394.0</ele><time>2026-04-03T16:18:26.467Z</time></trkpt><trkpt lat="40.6546524" lon="17.3728781"><ele>394.0</ele><time>2026-04-03T16:18:27.466Z</time></trkpt><trkpt lat="40.6546134" lon="17.3727765"><ele>394.0</ele><time>2026-04-03T16:18:28.468Z</time></trkpt><trkpt lat="40.6545726" lon="17.3726662"><ele>394.6</ele><time>2026-04-03T16:18:29.466Z</time></trkpt><trkpt lat="40.6545262" lon="17.3725433"><ele>395.2</ele><time>2026-04-03T16:18:30.468Z</time></trkpt><trkpt lat="40.6544714" lon="17.3724303"><ele>395.8</ele><time>2026-04-03T16:18:31.467Z</time></trkpt><trkpt lat="40.6544135" lon="17.372312"><ele>396.40000000000003</ele><time>2026-04-03T16:18:32.467Z</time></trkpt><trkpt lat="40.6543443" lon="17.3721934"><ele>397.0</ele><time>2026-04-03T16:18:33.468Z</time></trkpt><trkpt lat="40.6542689" lon="17.3720836"><ele>398.6</ele><time>2026-04-03T16:18:34.468Z</time></trkpt><trkpt lat="40.6542036" lon="17.3719801"><ele>400.20000000000005</ele><time>2026-04-03T16:18:35.467Z</time></trkpt><trkpt lat="40.654137" lon="17.371879"><ele>401.8</ele><time>2026-04-03T16:18:36.467Z</time></trkpt><trkpt lat="40.654074" lon="17.3717862"><ele>403.4</ele><time>2026-04-03T16:18:37.466Z</time></trkpt><trkpt lat="40.6540147" lon="17.3717016"><ele>405.0</ele><time>2026-04-03T16:18:38.468Z</time></trkpt><trkpt lat="40.6539699" lon="17.371626"><ele>405.0</ele><time>2026-04-03T16:18:39.468Z</time></trkpt><trkpt lat="40.6538567" lon="17.3715503"><ele>405.0</ele><time>2026-04-03T16:18:41.466Z</time></trkpt><trkpt lat="40.6537797" lon="17.3715335"><ele>405.0</ele><time>2026-04-03T16:18:42.468Z</time></trkpt><trkpt lat="40.6536658" lon="17.3715098"><ele>405.0</ele><time>2026-04-03T16:18:43.467Z</time></trkpt><trkpt lat="40.6535543" lon="17.3714848"><ele>405.0</ele><time>2026-04-03T16:18:44.466Z</time></trkpt><trkpt lat="40.6534388" lon="17.371466"><ele>405.0</ele><time>2026-04-03T16:18:45.467Z</time></trkpt><trkpt lat="40.6533226" lon="17.3714439"><ele>405.0</ele><time>2026-04-03T16:18:46.468Z</time></trkpt><trkpt lat="40.6532105" lon="17.3714246"><ele>405.0</ele><time>2026-04-03T16:18:47.468Z</time></trkpt><trkpt lat="40.653097" lon="17.3714147"><ele>405.0</ele><time>2026-04-03T16:18:48.468Z</time></trkpt><trkpt lat="40.652991" lon="17.3714057"><ele>405.0</ele><time>2026-04-03T16:18:49.467Z</time></trkpt><trkpt lat="40.6528793" lon="17.3714024"><ele>405.0</ele><time>2026-04-03T16:18:50.467Z</time></trkpt><trkpt lat="40.6527738" lon="17.3713999"><ele>405.0</ele><time>2026-04-03T16:18:51.468Z</time></trkpt><trkpt lat="40.6526745" lon="17.371405"><ele>405.0</ele><time>2026-04-03T16:18:52.467Z</time></trkpt><trkpt lat="40.6525715" lon="17.3714121"><ele>405.0</ele><time>2026-04-03T16:18:53.467Z</time></trkpt><trkpt lat="40.6524618" lon="17.3714447"><ele>403.25</ele><time>2026-04-03T16:18:54.468Z</time></trkpt><trkpt lat="40.6523647" lon="17.3715112"><ele>401.5</ele><time>2026-04-03T16:18:55.466Z</time></trkpt><trkpt lat="40.6522475" lon="17.3715585"><ele>399.75</ele><time>2026-04-03T16:18:56.466Z</time></trkpt><trkpt lat="40.6521212" lon="17.3716115"><ele>398.0</ele><time>2026-04-03T16:18:57.468Z</time></trkpt><trkpt lat="40.6520103" lon="17.3716711"><ele>397.0</ele><time>2026-04-03T16:18:58.468Z</time></trkpt><trkpt lat="40.6518947" lon="17.371713"><ele>396.0</ele><time>2026-04-03T16:18:59.468Z</time></trkpt><trkpt lat="40.6517936" lon="17.3717183"><ele>395.0</ele><time>2026-04-03T16:19:00.468Z</time></trkpt><trkpt lat="40.6516948" lon="17.3717285"><ele>394.0</ele><time>2026-04-03T16:19:01.467Z</time></trkpt><trkpt lat="40.6515919" lon="17.3717382"><ele>393.0</ele><time>2026-04-03T16:19:02.468Z</time></trkpt><trkpt lat="40.6514925" lon="17.3717546"><ele>393.0</ele><time>2026-04-03T16:19:03.466Z</time></trkpt><trkpt lat="40.6514027" lon="17.3717899"><ele>393.0</ele><time>2026-04-03T16:19:04.468Z</time></trkpt><trkpt lat="40.6513105" lon="17.3718533"><ele>393.0</ele><time>2026-04-03T16:19:05.467Z</time></trkpt><trkpt lat="40.6512152" lon="17.3719314"><ele>393.0</ele><time>2026-04-03T16:19:06.466Z</time></trkpt><trkpt lat="40.6511168" lon="17.3720109"><ele>393.0</ele><time>2026-04-03T16:19:07.468Z</time></trkpt><trkpt lat="40.6510113" lon="17.3720947"><ele>393.25</ele><time>2026-04-03T16:19:08.467Z</time></trkpt><trkpt lat="40.650896" lon="17.3721641"><ele>393.5</ele><time>2026-04-03T16:19:09.467Z</time></trkpt><trkpt lat="40.650773" lon="17.3722326"><ele>393.75</ele><time>2026-04-03T16:19:10.466Z</time></trkpt><trkpt lat="40.650658" lon="17.3723021"><ele>394.0</ele><time>2026-04-03T16:19:11.467Z</time></trkpt><trkpt lat="40.6505338" lon="17.372358"><ele>394.0</ele><time>2026-04-03T16:19:12.466Z</time></trkpt><trkpt lat="40.6504127" lon="17.3724093"><ele>394.0</ele><time>2026-04-03T16:19:13.468Z</time></trkpt><trkpt lat="40.6503017" lon="17.3724568"><ele>394.0</ele><time>2026-04-03T16:19:14.467Z</time></trkpt><trkpt lat="40.6502012" lon="17.3724929"><ele>394.0</ele><time>2026-04-03T16:19:15.466Z</time></trkpt><trkpt lat="40.6501168" lon="17.3725135"><ele>394.0</ele><time>2026-04-03T16:19:16.467Z</time></trkpt><trkpt lat="40.6500533" lon="17.3725129"><ele>394.83333333333337</ele><time>2026-04-03T16:19:17.467Z</time></trkpt><trkpt lat="40.649989" lon="17.372499"><ele>395.6666666666667</ele><time>2026-04-03T16:19:18.467Z</time></trkpt><trkpt lat="40.6499127" lon="17.3724424"><ele>396.5</ele><time>2026-04-03T16:19:21.468Z</time></trkpt><trkpt lat="40.6498871" lon="17.3723439"><ele>397.33333333333337</ele><time>2026-04-03T16:19:23.468Z</time></trkpt><trkpt lat="40.6499028" lon="17.3721797"><ele>398.1666666666667</ele><time>2026-04-03T16:19:25.467Z</time></trkpt><trkpt lat="40.6499214" lon="17.3720684"><ele>399.0</ele><time>2026-04-03T16:19:26.468Z</time></trkpt><trkpt lat="40.649944" lon="17.3719399"><ele>399.75</ele><time>2026-04-03T16:19:27.467Z</time></trkpt><trkpt lat="40.6499682" lon="17.3717975"><ele>400.5</ele><time>2026-04-03T16:19:28.466Z</time></trkpt><trkpt lat="40.6499955" lon="17.3716344"><ele>401.25</ele><time>2026-04-03T16:19:29.468Z</time></trkpt><trkpt lat="40.6500173" lon="17.3714586"><ele>402.0</ele><time>2026-04-03T16:19:30.467Z</time></trkpt><trkpt lat="40.6500443" lon="17.3712837"><ele>403.0</ele><time>2026-04-03T16:19:31.467Z</time></trkpt><trkpt lat="40.6500801" lon="17.3710867"><ele>404.0</ele><time>2026-04-03T16:19:32.467Z</time></trkpt><trkpt lat="40.650113" lon="17.3708848"><ele>405.0</ele><time>2026-04-03T16:19:33.466Z</time></trkpt><trkpt lat="40.6501428" lon="17.3706981"><ele>405.5</ele><time>2026-04-03T16:19:34.467Z</time></trkpt><trkpt lat="40.6501758" lon="17.370516"><ele>406.0</ele><time>2026-04-03T16:19:35.468Z</time></trkpt><trkpt lat="40.6502131" lon="17.370335"><ele>406.5</ele><time>2026-04-03T16:19:36.467Z</time></trkpt><trkpt lat="40.6502518" lon="17.3701529"><ele>407.0</ele><time>2026-04-03T16:19:37.467Z</time></trkpt><trkpt lat="40.6502878" lon="17.3699683"><ele>406.25</ele><time>2026-04-03T16:19:38.467Z</time></trkpt><trkpt lat="40.6503254" lon="17.3697779"><ele>405.5</ele><time>2026-04-03T16:19:39.467Z</time></trkpt><trkpt lat="40.6503623" lon="17.3695899"><ele>404.75</ele><time>2026-04-03T16:19:40.468Z</time></trkpt><trkpt lat="40.6504007" lon="17.3693971"><ele>404.0</ele><time>2026-04-03T16:19:41.468Z</time></trkpt><trkpt lat="40.650431" lon="17.3692052"><ele>404.0</ele><time>2026-04-03T16:19:42.468Z</time></trkpt><trkpt lat="40.6504644" lon="17.3690076"><ele>404.0</ele><time>2026-04-03T16:19:43.467Z</time></trkpt><trkpt lat="40.6504876" lon="17.3688013"><ele>404.0</ele><time>2026-04-03T16:19:44.468Z</time></trkpt><trkpt lat="40.6505086" lon="17.3685968"><ele>404.3333333333333</ele><time>2026-04-03T16:19:45.467Z</time></trkpt><trkpt lat="40.65053" lon="17.3683939"><ele>404.66666666666663</ele><time>2026-04-03T16:19:46.468Z</time></trkpt><trkpt lat="40.6505522" lon="17.3681832"><ele>405.0</ele><time>2026-04-03T16:19:47.468Z</time></trkpt><trkpt lat="40.6505741" lon="17.3679775"><ele>405.75</ele><time>2026-04-03T16:19:48.468Z</time></trkpt><trkpt lat="40.6505973" lon="17.3677886"><ele>406.5</ele><time>2026-04-03T16:19:49.467Z</time></trkpt><trkpt lat="40.6506188" lon="17.3676051"><ele>407.25</ele><time>2026-04-03T16:19:50.467Z</time></trkpt><trkpt lat="40.6506395" lon="17.3674337"><ele>408.0</ele><time>2026-04-03T16:19:51.467Z</time></trkpt><trkpt lat="40.6506595" lon="17.3672671"><ele>408.4</ele><time>2026-04-03T16:19:52.468Z</time></trkpt><trkpt lat="40.6506848" lon="17.3671066"><ele>408.79999999999995</ele><time>2026-04-03T16:19:53.467Z</time></trkpt><trkpt lat="40.6507206" lon="17.366957"><ele>409.2</ele><time>2026-04-03T16:19:54.466Z</time></trkpt><trkpt lat="40.6507637" lon="17.3668498"><ele>409.6</ele><time>2026-04-03T16:19:55.468Z</time></trkpt><trkpt lat="40.6508195" lon="17.3667513"><ele>410.0</ele><time>2026-04-03T16:19:56.468Z</time></trkpt><trkpt lat="40.6508907" lon="17.3666633"><ele>410.0</ele><time>2026-04-03T16:19:57.468Z</time></trkpt><trkpt lat="40.6509792" lon="17.3665915"><ele>410.0</ele><time>2026-04-03T16:19:58.467Z</time></trkpt><trkpt lat="40.6510663" lon="17.3665112"><ele>410.0</ele><time>2026-04-03T16:19:59.467Z</time></trkpt><trkpt lat="40.6511473" lon="17.3664134"><ele>410.0</ele><time>2026-04-03T16:20:00.466Z</time></trkpt><trkpt lat="40.6512076" lon="17.366279"><ele>410.0</ele><time>2026-04-03T16:20:01.467Z</time></trkpt><trkpt lat="40.6512643" lon="17.3661096"><ele>408.3333333333333</ele><time>2026-04-03T16:20:02.468Z</time></trkpt><trkpt lat="40.6513382" lon="17.3659103"><ele>406.66666666666663</ele><time>2026-04-03T16:20:03.468Z</time></trkpt><trkpt lat="40.6514084" lon="17.3656967"><ele>405.0</ele><time>2026-04-03T16:20:04.467Z</time></trkpt><trkpt lat="40.6514798" lon="17.3654882"><ele>404.33333333333337</ele><time>2026-04-03T16:20:05.466Z</time></trkpt><trkpt lat="40.6515554" lon="17.3652787"><ele>403.6666666666667</ele><time>2026-04-03T16:20:06.467Z</time></trkpt><trkpt lat="40.6516263" lon="17.3650612"><ele>403.0</ele><time>2026-04-03T16:20:07.468Z</time></trkpt><trkpt lat="40.6517006" lon="17.3648428"><ele>403.33333333333337</ele><time>2026-04-03T16:20:08.467Z</time></trkpt><trkpt lat="40.6517788" lon="17.3646283"><ele>403.66666666666663</ele><time>2026-04-03T16:20:09.467Z</time></trkpt><trkpt lat="40.6518534" lon="17.3644102"><ele>404.0</ele><time>2026-04-03T16:20:10.468Z</time></trkpt><trkpt lat="40.6519235" lon="17.3641994"><ele>404.3333333333333</ele><time>2026-04-03T16:20:11.466Z</time></trkpt><trkpt lat="40.6519921" lon="17.3639904"><ele>404.66666666666663</ele><time>2026-04-03T16:20:12.467Z</time></trkpt><trkpt lat="40.6520521" lon="17.3637928"><ele>405.0</ele><time>2026-04-03T16:20:13.466Z</time></trkpt><trkpt lat="40.6521131" lon="17.3635925"><ele>406.0</ele><time>2026-04-03T16:20:14.468Z</time></trkpt><trkpt lat="40.6521765" lon="17.3634082"><ele>407.0</ele><time>2026-04-03T16:20:15.466Z</time></trkpt><trkpt lat="40.6522378" lon="17.3632317"><ele>408.0</ele><time>2026-04-03T16:20:16.467Z</time></trkpt><trkpt lat="40.6523005" lon="17.363048"><ele>409.0</ele><time>2026-04-03T16:20:17.468Z</time></trkpt><trkpt lat="40.6523595" lon="17.3628603"><ele>410.0</ele><time>2026-04-03T16:20:18.467Z</time></trkpt><trkpt lat="40.6524169" lon="17.3626801"><ele>411.0</ele><time>2026-04-03T16:20:19.468Z</time></trkpt><trkpt lat="40.6524767" lon="17.3624982"><ele>411.0</ele><time>2026-04-03T16:20:20.467Z</time></trkpt><trkpt lat="40.6525288" lon="17.3623358"><ele>411.0</ele><time>2026-04-03T16:20:21.468Z</time></trkpt><trkpt lat="40.6525833" lon="17.3621829"><ele>411.0</ele><time>2026-04-03T16:20:22.468Z</time></trkpt><trkpt lat="40.6526311" lon="17.3620276"><ele>411.0</ele><time>2026-04-03T16:20:23.467Z</time></trkpt><trkpt lat="40.6526681" lon="17.361879"><ele>411.75</ele><time>2026-04-03T16:20:24.467Z</time></trkpt><trkpt lat="40.6526952" lon="17.3617307"><ele>412.5</ele><time>2026-04-03T16:20:25.466Z</time></trkpt><trkpt lat="40.6527165" lon="17.3615686"><ele>413.25</ele><time>2026-04-03T16:20:26.467Z</time></trkpt><trkpt lat="40.6527236" lon="17.3613997"><ele>414.0</ele><time>2026-04-03T16:20:27.467Z</time></trkpt><trkpt lat="40.6527194" lon="17.3612167"><ele>414.0</ele><time>2026-04-03T16:20:28.467Z</time></trkpt><trkpt lat="40.6527087" lon="17.3610171"><ele>414.0</ele><time>2026-04-03T16:20:29.467Z</time></trkpt><trkpt lat="40.6526988" lon="17.3608056"><ele>414.0</ele><time>2026-04-03T16:20:30.467Z</time></trkpt><trkpt lat="40.6526929" lon="17.3605885"><ele>413.33333333333337</ele><time>2026-04-03T16:20:31.466Z</time></trkpt><trkpt lat="40.6526864" lon="17.3603708"><ele>412.6666666666667</ele><time>2026-04-03T16:20:32.468Z</time></trkpt><trkpt lat="40.6526756" lon="17.3601482"><ele>412.0</ele><time>2026-04-03T16:20:33.466Z</time></trkpt><trkpt lat="40.6526694" lon="17.3599313"><ele>412.0</ele><time>2026-04-03T16:20:34.468Z</time></trkpt><trkpt lat="40.6526675" lon="17.359717"><ele>412.0</ele><time>2026-04-03T16:20:35.468Z</time></trkpt><trkpt lat="40.6526672" lon="17.3595156"><ele>412.0</ele><time>2026-04-03T16:20:36.468Z</time></trkpt><trkpt lat="40.6526774" lon="17.3593094"><ele>412.0</ele><time>2026-04-03T16:20:37.466Z</time></trkpt><trkpt lat="40.6526861" lon="17.3591181"><ele>412.0</ele><time>2026-04-03T16:20:38.467Z</time></trkpt><trkpt lat="40.6526917" lon="17.3589276"><ele>412.0</ele><time>2026-04-03T16:20:39.468Z</time></trkpt><trkpt lat="40.6527044" lon="17.3587369"><ele>412.0</ele><time>2026-04-03T16:20:40.468Z</time></trkpt><trkpt lat="40.6527241" lon="17.3585576"><ele>412.0</ele><time>2026-04-03T16:20:41.466Z</time></trkpt><trkpt lat="40.6527408" lon="17.3583765"><ele>412.0</ele><time>2026-04-03T16:20:42.466Z</time></trkpt><trkpt lat="40.6527587" lon="17.3582009"><ele>412.0</ele><time>2026-04-03T16:20:43.466Z</time></trkpt><trkpt lat="40.6527734" lon="17.3580318"><ele>412.0</ele><time>2026-04-03T16:20:44.467Z</time></trkpt><trkpt lat="40.6527907" lon="17.3578591"><ele>411.5</ele><time>2026-04-03T16:20:45.467Z</time></trkpt><trkpt lat="40.6528113" lon="17.3576891"><ele>411.0</ele><time>2026-04-03T16:20:46.467Z</time></trkpt><trkpt lat="40.6528456" lon="17.3575381"><ele>410.5</ele><time>2026-04-03T16:20:47.467Z</time></trkpt><trkpt lat="40.6529034" lon="17.3573958"><ele>410.0</ele><time>2026-04-03T16:20:48.466Z</time></trkpt><trkpt lat="40.652975" lon="17.3572578"><ele>410.25</ele><time>2026-04-03T16:20:49.466Z</time></trkpt><trkpt lat="40.6530525" lon="17.3571061"><ele>410.5</ele><time>2026-04-03T16:20:50.467Z</time></trkpt><trkpt lat="40.6531331" lon="17.3569549"><ele>410.75</ele><time>2026-04-03T16:20:51.467Z</time></trkpt><trkpt lat="40.6532162" lon="17.3567909"><ele>411.0</ele><time>2026-04-03T16:20:52.466Z</time></trkpt><trkpt lat="40.6532928" lon="17.3566447"><ele>411.0</ele><time>2026-04-03T16:20:53.468Z</time></trkpt><trkpt lat="40.6533723" lon="17.3564945"><ele>411.0</ele><time>2026-04-03T16:20:54.467Z</time></trkpt><trkpt lat="40.6534561" lon="17.3563434"><ele>411.0</ele><time>2026-04-03T16:20:55.468Z</time></trkpt><trkpt lat="40.6535401" lon="17.3561848"><ele>411.0</ele><time>2026-04-03T16:20:56.467Z</time></trkpt><trkpt lat="40.6536195" lon="17.3560364"><ele>410.75</ele><time>2026-04-03T16:20:57.467Z</time></trkpt><trkpt lat="40.6537029" lon="17.3558768"><ele>410.5</ele><time>2026-04-03T16:20:58.467Z</time></trkpt><trkpt lat="40.6537844" lon="17.3557221"><ele>410.25</ele><time>2026-04-03T16:20:59.467Z</time></trkpt><trkpt lat="40.6538628" lon="17.3555696"><ele>410.0</ele><time>2026-04-03T16:21:00.466Z</time></trkpt><trkpt lat="40.6539318" lon="17.3554252"><ele>410.0</ele><time>2026-04-03T16:21:01.467Z</time></trkpt><trkpt lat="40.6539769" lon="17.3552686"><ele>410.0</ele><time>2026-04-03T16:21:02.467Z</time></trkpt><trkpt lat="40.6539944" lon="17.3550963"><ele>410.0</ele><time>2026-04-03T16:21:03.466Z</time></trkpt><trkpt lat="40.6539821" lon="17.3548656"><ele>410.0</ele><time>2026-04-03T16:21:04.467Z</time></trkpt><trkpt lat="40.6539721" lon="17.3546638"><ele>410.25</ele><time>2026-04-03T16:21:05.467Z</time></trkpt><trkpt lat="40.6539679" lon="17.3544642"><ele>410.5</ele><time>2026-04-03T16:21:06.467Z</time></trkpt><trkpt lat="40.6539611" lon="17.3542725"><ele>410.75</ele><time>2026-04-03T16:21:07.467Z</time></trkpt><trkpt lat="40.6539603" lon="17.3540824"><ele>411.0</ele><time>2026-04-03T16:21:08.467Z</time></trkpt><trkpt lat="40.653955" lon="17.3538792"><ele>410.66666666666663</ele><time>2026-04-03T16:21:09.467Z</time></trkpt><trkpt lat="40.6539577" lon="17.3536724"><ele>410.3333333333333</ele><time>2026-04-03T16:21:10.467Z</time></trkpt><trkpt lat="40.6539558" lon="17.3534557"><ele>410.0</ele><time>2026-04-03T16:21:11.466Z</time></trkpt><trkpt lat="40.6539554" lon="17.35324"><ele>410.3333333333333</ele><time>2026-04-03T16:21:12.467Z</time></trkpt><trkpt lat="40.653955" lon="17.3530207"><ele>410.66666666666663</ele><time>2026-04-03T16:21:13.466Z</time></trkpt><trkpt lat="40.6539552" lon="17.3528062"><ele>411.0</ele><time>2026-04-03T16:21:14.466Z</time></trkpt><trkpt lat="40.6539548" lon="17.3525964"><ele>411.0</ele><time>2026-04-03T16:21:15.466Z</time></trkpt><trkpt lat="40.6539597" lon="17.3523895"><ele>411.0</ele><time>2026-04-03T16:21:16.468Z</time></trkpt><trkpt lat="40.6539608" lon="17.3521682"><ele>411.0</ele><time>2026-04-03T16:21:17.466Z</time></trkpt><trkpt lat="40.6539543" lon="17.3519446"><ele>410.33333333333337</ele><time>2026-04-03T16:21:18.467Z</time></trkpt><trkpt lat="40.6539552" lon="17.3517148"><ele>409.6666666666667</ele><time>2026-04-03T16:21:19.468Z</time></trkpt><trkpt lat="40.6539556" lon="17.351476"><ele>409.0</ele><time>2026-04-03T16:21:20.467Z</time></trkpt><trkpt lat="40.6539546" lon="17.3512455"><ele>409.0</ele><time>2026-04-03T16:21:21.468Z</time></trkpt><trkpt lat="40.653951" lon="17.3510229"><ele>409.0</ele><time>2026-04-03T16:21:22.468Z</time></trkpt><trkpt lat="40.6539498" lon="17.3508124"><ele>409.0</ele><time>2026-04-03T16:21:23.467Z</time></trkpt><trkpt lat="40.6539549" lon="17.3506094"><ele>409.5</ele><time>2026-04-03T16:21:24.467Z</time></trkpt><trkpt lat="40.6539596" lon="17.3504246"><ele>410.0</ele><time>2026-04-03T16:21:25.467Z</time></trkpt><trkpt lat="40.6539628" lon="17.3502543"><ele>410.5</ele><time>2026-04-03T16:21:26.466Z</time></trkpt><trkpt lat="40.6539672" lon="17.3501087"><ele>411.0</ele><time>2026-04-03T16:21:27.467Z</time></trkpt><trkpt lat="40.6539726" lon="17.3499808"><ele>411.0</ele><time>2026-04-03T16:21:28.467Z</time></trkpt><trkpt lat="40.653977" lon="17.349891"><ele>411.0</ele><time>2026-04-03T16:21:29.467Z</time></trkpt><trkpt lat="40.653975" lon="17.349797"><ele>411.0</ele><time>2026-04-03T16:21:30.467Z</time></trkpt><trkpt lat="40.6539785" lon="17.3496864"><ele>411.0</ele><time>2026-04-03T16:21:31.468Z</time></trkpt><trkpt lat="40.6539864" lon="17.3495468"><ele>411.0</ele><time>2026-04-03T16:21:32.467Z</time></trkpt><trkpt lat="40.653998" lon="17.3493753"><ele>410.66666666666663</ele><time>2026-04-03T16:21:33.466Z</time></trkpt><trkpt lat="40.6540158" lon="17.3491749"><ele>410.3333333333333</ele><time>2026-04-03T16:21:34.468Z</time></trkpt><trkpt lat="40.6540279" lon="17.34897"><ele>410.0</ele><time>2026-04-03T16:21:35.467Z</time></trkpt><trkpt lat="40.6540446" lon="17.3487546"><ele>410.66666666666663</ele><time>2026-04-03T16:21:36.467Z</time></trkpt><trkpt lat="40.6540558" lon="17.3485532"><ele>411.33333333333337</ele><time>2026-04-03T16:21:37.468Z</time></trkpt><trkpt lat="40.6540637" lon="17.3483477"><ele>412.0</ele><time>2026-04-03T16:21:38.467Z</time></trkpt><trkpt lat="40.6540698" lon="17.3481423"><ele>413.0</ele><time>2026-04-03T16:21:39.466Z</time></trkpt><trkpt lat="40.6540779" lon="17.3479403"><ele>414.0</ele><time>2026-04-03T16:21:40.466Z</time></trkpt><trkpt lat="40.6540874" lon="17.3477412"><ele>415.0</ele><time>2026-04-03T16:21:41.467Z</time></trkpt><trkpt lat="40.6540948" lon="17.34754"><ele>415.0</ele><time>2026-04-03T16:21:42.468Z</time></trkpt><trkpt lat="40.6541048" lon="17.3473282"><ele>415.0</ele><time>2026-04-03T16:21:43.468Z</time></trkpt><trkpt lat="40.6541139" lon="17.3471129"><ele>415.0</ele><time>2026-04-03T16:21:44.467Z</time></trkpt><trkpt lat="40.6541259" lon="17.3468952"><ele>415.33333333333337</ele><time>2026-04-03T16:21:45.466Z</time></trkpt><trkpt lat="40.6541339" lon="17.3466736"><ele>415.66666666666663</ele><time>2026-04-03T16:21:46.468Z</time></trkpt><trkpt lat="40.654141" lon="17.3464471"><ele>416.0</ele><time>2026-04-03T16:21:47.467Z</time></trkpt><trkpt lat="40.6541546" lon="17.3462344"><ele>416.66666666666663</ele><time>2026-04-03T16:21:48.467Z</time></trkpt><trkpt lat="40.6541644" lon="17.3460007"><ele>417.33333333333337</ele><time>2026-04-03T16:21:49.467Z</time></trkpt><trkpt lat="40.6541771" lon="17.3457892"><ele>418.0</ele><time>2026-04-03T16:21:50.468Z</time></trkpt><trkpt lat="40.6541911" lon="17.3455733"><ele>418.6666666666667</ele><time>2026-04-03T16:21:51.468Z</time></trkpt><trkpt lat="40.6541989" lon="17.3453467"><ele>419.33333333333337</ele><time>2026-04-03T16:21:52.468Z</time></trkpt><trkpt lat="40.6542152" lon="17.3451477"><ele>420.0</ele><time>2026-04-03T16:21:53.467Z</time></trkpt><trkpt lat="40.6542241" lon="17.3449578"><ele>420.0</ele><time>2026-04-03T16:21:54.467Z</time></trkpt><trkpt lat="40.6542239" lon="17.3447518"><ele>420.0</ele><time>2026-04-03T16:21:55.467Z</time></trkpt><trkpt lat="40.6542178" lon="17.3445387"><ele>420.0</ele><time>2026-04-03T16:21:56.466Z</time></trkpt><trkpt lat="40.6542044" lon="17.3443313"><ele>420.25</ele><time>2026-04-03T16:21:57.466Z</time></trkpt><trkpt lat="40.6541873" lon="17.3441389"><ele>420.5</ele><time>2026-04-03T16:21:58.467Z</time></trkpt><trkpt lat="40.6541666" lon="17.3439418"><ele>420.75</ele><time>2026-04-03T16:21:59.467Z</time></trkpt><trkpt lat="40.6541503" lon="17.3437468"><ele>421.0</ele><time>2026-04-03T16:22:00.468Z</time></trkpt><trkpt lat="40.6541237" lon="17.3435373"><ele>421.0</ele><time>2026-04-03T16:22:01.467Z</time></trkpt><trkpt lat="40.6540971" lon="17.3433041"><ele>421.0</ele><time>2026-04-03T16:22:02.467Z</time></trkpt><trkpt lat="40.6540753" lon="17.34308"><ele>421.0</ele><time>2026-04-03T16:22:03.468Z</time></trkpt><trkpt lat="40.654036" lon="17.342849"><ele>421.0</ele><time>2026-04-03T16:22:04.468Z</time></trkpt><trkpt lat="40.6540122" lon="17.3426356"><ele>421.0</ele><time>2026-04-03T16:22:05.468Z</time></trkpt><trkpt lat="40.653992" lon="17.3424508"><ele>421.0</ele><time>2026-04-03T16:22:06.468Z</time></trkpt><trkpt lat="40.6539671" lon="17.3422923"><ele>421.0</ele><time>2026-04-03T16:22:07.468Z</time></trkpt><trkpt lat="40.6539525" lon="17.3421671"><ele>421.0</ele><time>2026-04-03T16:22:08.467Z</time></trkpt><trkpt lat="40.65394" lon="17.342067"><ele>421.0</ele><time>2026-04-03T16:22:09.468Z</time></trkpt><trkpt lat="40.653947" lon="17.3419178"><ele>421.0</ele><time>2026-04-03T16:22:11.466Z</time></trkpt><trkpt lat="40.6539673" lon="17.3418158"><ele>421.0</ele><time>2026-04-03T16:22:13.465Z</time></trkpt><trkpt lat="40.6540492" lon="17.3417311"><ele>421.0</ele><time>2026-04-03T16:22:15.465Z</time></trkpt><trkpt lat="40.6541365" lon="17.3417151"><ele>421.0</ele><time>2026-04-03T16:22:16.465Z</time></trkpt><trkpt lat="40.6542467" lon="17.3417042"><ele>421.0</ele><time>2026-04-03T16:22:17.466Z</time></trkpt><trkpt lat="40.6543479" lon="17.341695"><ele>421.0</ele><time>2026-04-03T16:22:18.465Z</time></trkpt><trkpt lat="40.6544794" lon="17.3416846"><ele>421.0</ele><time>2026-04-03T16:22:19.465Z</time></trkpt><trkpt lat="40.6546451" lon="17.341678"><ele>419.0</ele><time>2026-04-03T16:22:20.465Z</time></trkpt><trkpt lat="40.6548046" lon="17.3416811"><ele>417.0</ele><time>2026-04-03T16:22:21.466Z</time></trkpt><trkpt lat="40.6549977" lon="17.3416705"><ele>415.0</ele><time>2026-04-03T16:22:22.466Z</time></trkpt><trkpt lat="40.655161" lon="17.3416628"><ele>413.6666666666667</ele><time>2026-04-03T16:22:23.465Z</time></trkpt><trkpt lat="40.6553308" lon="17.3416594"><ele>412.33333333333337</ele><time>2026-04-03T16:22:24.466Z</time></trkpt><trkpt lat="40.6554945" lon="17.3416538"><ele>411.0</ele><time>2026-04-03T16:22:25.466Z</time></trkpt><trkpt lat="40.6556671" lon="17.3416383"><ele>411.0</ele><time>2026-04-03T16:22:26.465Z</time></trkpt><trkpt lat="40.6558367" lon="17.3416185"><ele>411.0</ele><time>2026-04-03T16:22:27.466Z</time></trkpt><trkpt lat="40.6560315" lon="17.3415798"><ele>411.0</ele><time>2026-04-03T16:22:28.465Z</time></trkpt><trkpt lat="40.6562108" lon="17.341539"><ele>409.66666666666663</ele><time>2026-04-03T16:22:29.466Z</time></trkpt><trkpt lat="40.6563855" lon="17.3414974"><ele>408.3333333333333</ele><time>2026-04-03T16:22:30.466Z</time></trkpt><trkpt lat="40.6565745" lon="17.3414675"><ele>407.0</ele><time>2026-04-03T16:22:31.467Z</time></trkpt><trkpt lat="40.6567614" lon="17.3414514"><ele>408.66666666666663</ele><time>2026-04-03T16:22:32.466Z</time></trkpt><trkpt lat="40.6569528" lon="17.3414491"><ele>410.33333333333337</ele><time>2026-04-03T16:22:33.466Z</time></trkpt><trkpt lat="40.657146" lon="17.3414646"><ele>412.0</ele><time>2026-04-03T16:22:34.466Z</time></trkpt><trkpt lat="40.6573477" lon="17.3414814"><ele>412.0</ele><time>2026-04-03T16:22:35.467Z</time></trkpt><trkpt lat="40.6575242" lon="17.3414831"><ele>412.0</ele><time>2026-04-03T16:22:36.466Z</time></trkpt><trkpt lat="40.6577044" lon="17.3414911"><ele>412.0</ele><time>2026-04-03T16:22:37.467Z</time></trkpt><trkpt lat="40.6578668" lon="17.3414973"><ele>413.6666666666667</ele><time>2026-04-03T16:22:38.467Z</time></trkpt><trkpt lat="40.6580281" lon="17.3415089"><ele>415.33333333333337</ele><time>2026-04-03T16:22:39.465Z</time></trkpt><trkpt lat="40.6581816" lon="17.3415017"><ele>417.0</ele><time>2026-04-03T16:22:40.466Z</time></trkpt><trkpt lat="40.6583156" lon="17.3414534"><ele>417.0</ele><time>2026-04-03T16:22:41.466Z</time></trkpt><trkpt lat="40.6584437" lon="17.3413853"><ele>417.0</ele><time>2026-04-03T16:22:42.466Z</time></trkpt><trkpt lat="40.6585496" lon="17.3413115"><ele>417.0</ele><time>2026-04-03T16:22:43.467Z</time></trkpt><trkpt lat="40.6586887" lon="17.3411774"><ele>417.0</ele><time>2026-04-03T16:22:44.467Z</time></trkpt><trkpt lat="40.6588097" lon="17.3410349"><ele>417.5</ele><time>2026-04-03T16:22:45.467Z</time></trkpt><trkpt lat="40.6589224" lon="17.3408995"><ele>418.0</ele><time>2026-04-03T16:22:46.466Z</time></trkpt><trkpt lat="40.6590507" lon="17.3408041"><ele>418.5</ele><time>2026-04-03T16:22:47.466Z</time></trkpt><trkpt lat="40.659166" lon="17.340751"><ele>419.0</ele><time>2026-04-03T16:22:48.467Z</time></trkpt><trkpt lat="40.6592737" lon="17.340717"><ele>419.0</ele><time>2026-04-03T16:22:49.466Z</time></trkpt><trkpt lat="40.6594306" lon="17.3407217"><ele>419.0</ele><time>2026-04-03T16:22:50.466Z</time></trkpt><trkpt lat="40.6595885" lon="17.3407613"><ele>419.0</ele><time>2026-04-03T16:22:51.467Z</time></trkpt><trkpt lat="40.6597388" lon="17.3408115"><ele>418.0</ele><time>2026-04-03T16:22:52.467Z</time></trkpt><trkpt lat="40.6599111" lon="17.3408774"><ele>417.0</ele><time>2026-04-03T16:22:53.466Z</time></trkpt><trkpt lat="40.6600845" lon="17.3409323"><ele>416.0</ele><time>2026-04-03T16:22:54.467Z</time></trkpt><trkpt lat="40.6602903" lon="17.3410101"><ele>415.3333333333333</ele><time>2026-04-03T16:22:55.466Z</time></trkpt><trkpt lat="40.6604892" lon="17.3410673"><ele>414.66666666666663</ele><time>2026-04-03T16:22:56.466Z</time></trkpt><trkpt lat="40.6606873" lon="17.3411365"><ele>414.0</ele><time>2026-04-03T16:22:57.466Z</time></trkpt><trkpt lat="40.6608727" lon="17.3412002"><ele>414.0</ele><time>2026-04-03T16:22:58.467Z</time></trkpt><trkpt lat="40.6610582" lon="17.3412681"><ele>414.0</ele><time>2026-04-03T16:22:59.466Z</time></trkpt><trkpt lat="40.6612466" lon="17.3413354"><ele>414.0</ele><time>2026-04-03T16:23:00.466Z</time></trkpt><trkpt lat="40.6614351" lon="17.3413977"><ele>412.66666666666663</ele><time>2026-04-03T16:23:01.466Z</time></trkpt><trkpt lat="40.6616172" lon="17.3414552"><ele>411.3333333333333</ele><time>2026-04-03T16:23:02.466Z</time></trkpt><trkpt lat="40.661789" lon="17.3414982"><ele>410.0</ele><time>2026-04-03T16:23:03.467Z</time></trkpt><trkpt lat="40.661959" lon="17.341525"><ele>410.0</ele><time>2026-04-03T16:23:04.466Z</time></trkpt><trkpt lat="40.6621314" lon="17.3415369"><ele>410.0</ele><time>2026-04-03T16:23:05.467Z</time></trkpt><trkpt lat="40.6623068" lon="17.3415332"><ele>410.0</ele><time>2026-04-03T16:23:06.466Z</time></trkpt><trkpt lat="40.6624681" lon="17.3415035"><ele>410.0</ele><time>2026-04-03T16:23:07.466Z</time></trkpt><trkpt lat="40.6626322" lon="17.3414321"><ele>410.0</ele><time>2026-04-03T16:23:08.467Z</time></trkpt><trkpt lat="40.6627829" lon="17.3413322"><ele>410.0</ele><time>2026-04-03T16:23:09.466Z</time></trkpt><trkpt lat="40.6628992" lon="17.3412075"><ele>410.3333333333333</ele><time>2026-04-03T16:23:10.466Z</time></trkpt><trkpt lat="40.6630218" lon="17.3410596"><ele>410.66666666666663</ele><time>2026-04-03T16:23:11.466Z</time></trkpt><trkpt lat="40.6631373" lon="17.3409025"><ele>411.0</ele><time>2026-04-03T16:23:12.465Z</time></trkpt><trkpt lat="40.6632631" lon="17.3407459"><ele>411.0</ele><time>2026-04-03T16:23:13.467Z</time></trkpt><trkpt lat="40.663384" lon="17.3406077"><ele>411.0</ele><time>2026-04-03T16:23:14.467Z</time></trkpt><trkpt lat="40.6635193" lon="17.340474"><ele>411.0</ele><time>2026-04-03T16:23:15.466Z</time></trkpt><trkpt lat="40.6636599" lon="17.3403483"><ele>412.0</ele><time>2026-04-03T16:23:16.467Z</time></trkpt><trkpt lat="40.6638203" lon="17.3402497"><ele>413.0</ele><time>2026-04-03T16:23:17.466Z</time></trkpt><trkpt lat="40.6639939" lon="17.3401699"><ele>414.0</ele><time>2026-04-03T16:23:18.467Z</time></trkpt><trkpt lat="40.664157" lon="17.3400838"><ele>414.0</ele><time>2026-04-03T16:23:19.466Z</time></trkpt><trkpt lat="40.6643113" lon="17.3400104"><ele>414.0</ele><time>2026-04-03T16:23:20.466Z</time></trkpt><trkpt lat="40.6644851" lon="17.3399286"><ele>414.0</ele><time>2026-04-03T16:23:21.466Z</time></trkpt><trkpt lat="40.6646539" lon="17.3398373"><ele>415.33333333333337</ele><time>2026-04-03T16:23:22.467Z</time></trkpt><trkpt lat="40.6648233" lon="17.339755"><ele>416.6666666666667</ele><time>2026-04-03T16:23:23.467Z</time></trkpt><trkpt lat="40.6649917" lon="17.3396757"><ele>418.0</ele><time>2026-04-03T16:23:24.467Z</time></trkpt><trkpt lat="40.6651639" lon="17.339593"><ele>418.6666666666667</ele><time>2026-04-03T16:23:25.466Z</time></trkpt><trkpt lat="40.6653307" lon="17.3395107"><ele>419.33333333333337</ele><time>2026-04-03T16:23:26.467Z</time></trkpt><trkpt lat="40.6655001" lon="17.3394269"><ele>420.0</ele><time>2026-04-03T16:23:27.466Z</time></trkpt><trkpt lat="40.6656762" lon="17.3393461"><ele>420.0</ele><time>2026-04-03T16:23:28.467Z</time></trkpt><trkpt lat="40.6658467" lon="17.3392497"><ele>420.0</ele><time>2026-04-03T16:23:29.467Z</time></trkpt><trkpt lat="40.6660066" lon="17.3391485"><ele>420.0</ele><time>2026-04-03T16:23:30.465Z</time></trkpt><trkpt lat="40.6661668" lon="17.3390418"><ele>420.33333333333337</ele><time>2026-04-03T16:23:31.466Z</time></trkpt><trkpt lat="40.6663237" lon="17.3389359"><ele>420.6666666666667</ele><time>2026-04-03T16:23:32.466Z</time></trkpt><trkpt lat="40.6664692" lon="17.3388385"><ele>421.0</ele><time>2026-04-03T16:23:33.465Z</time></trkpt><trkpt lat="40.6666193" lon="17.3387439"><ele>421.33333333333337</ele><time>2026-04-03T16:23:34.466Z</time></trkpt><trkpt lat="40.6667826" lon="17.3386557"><ele>421.66666666666663</ele><time>2026-04-03T16:23:35.467Z</time></trkpt><trkpt lat="40.6669426" lon="17.3385747"><ele>422.0</ele><time>2026-04-03T16:23:36.467Z</time></trkpt><trkpt lat="40.6671048" lon="17.3385071"><ele>422.66666666666663</ele><time>2026-04-03T16:23:37.466Z</time></trkpt><trkpt lat="40.6672747" lon="17.3384364"><ele>423.33333333333337</ele><time>2026-04-03T16:23:38.467Z</time></trkpt><trkpt lat="40.6674542" lon="17.3383597"><ele>424.0</ele><time>2026-04-03T16:23:39.466Z</time></trkpt><trkpt lat="40.6676222" lon="17.3382834"><ele>424.6666666666667</ele><time>2026-04-03T16:23:40.466Z</time></trkpt><trkpt lat="40.6677818" lon="17.3382141"><ele>425.33333333333337</ele><time>2026-04-03T16:23:41.467Z</time></trkpt><trkpt lat="40.6679348" lon="17.3381496"><ele>426.0</ele><time>2026-04-03T16:23:42.466Z</time></trkpt><trkpt lat="40.6680966" lon="17.338084"><ele>425.33333333333337</ele><time>2026-04-03T16:23:43.467Z</time></trkpt><trkpt lat="40.668247" lon="17.3380173"><ele>424.6666666666667</ele><time>2026-04-03T16:23:44.466Z</time></trkpt><trkpt lat="40.6683907" lon="17.3379583"><ele>424.0</ele><time>2026-04-03T16:23:45.467Z</time></trkpt><trkpt lat="40.6685309" lon="17.3379057"><ele>424.0</ele><time>2026-04-03T16:23:46.467Z</time></trkpt><trkpt lat="40.6686694" lon="17.337858"><ele>424.0</ele><time>2026-04-03T16:23:47.466Z</time></trkpt><trkpt lat="40.6688224" lon="17.3378201"><ele>424.0</ele><time>2026-04-03T16:23:48.465Z</time></trkpt><trkpt lat="40.66898" lon="17.3377881"><ele>424.0</ele><time>2026-04-03T16:23:49.466Z</time></trkpt><trkpt lat="40.6691484" lon="17.3377537"><ele>424.0</ele><time>2026-04-03T16:23:50.466Z</time></trkpt><trkpt lat="40.6693169" lon="17.3377156"><ele>424.0</ele><time>2026-04-03T16:23:51.466Z</time></trkpt><trkpt lat="40.6694801" lon="17.3376682"><ele>425.6666666666667</ele><time>2026-04-03T16:23:52.466Z</time></trkpt><trkpt lat="40.6696448" lon="17.3376053"><ele>427.33333333333337</ele><time>2026-04-03T16:23:53.466Z</time></trkpt><trkpt lat="40.6697928" lon="17.3375173"><ele>429.0</ele><time>2026-04-03T16:23:54.465Z</time></trkpt><trkpt lat="40.6699349" lon="17.337429"><ele>429.0</ele><time>2026-04-03T16:23:55.465Z</time></trkpt><trkpt lat="40.670096" lon="17.337332"><ele>429.0</ele><time>2026-04-03T16:23:56.466Z</time></trkpt><trkpt lat="40.6702433" lon="17.3372352"><ele>429.0</ele><time>2026-04-03T16:23:57.465Z</time></trkpt><trkpt lat="40.6703851" lon="17.3371419"><ele>429.33333333333337</ele><time>2026-04-03T16:23:58.465Z</time></trkpt><trkpt lat="40.6705251" lon="17.3370429"><ele>429.6666666666667</ele><time>2026-04-03T16:23:59.466Z</time></trkpt><trkpt lat="40.670663" lon="17.3369391"><ele>430.0</ele><time>2026-04-03T16:24:00.465Z</time></trkpt><trkpt lat="40.6708065" lon="17.3368176"><ele>430.0</ele><time>2026-04-03T16:24:01.466Z</time></trkpt><trkpt lat="40.6709401" lon="17.3366961"><ele>430.0</ele><time>2026-04-03T16:24:02.466Z</time></trkpt><trkpt lat="40.6710595" lon="17.3365575"><ele>430.0</ele><time>2026-04-03T16:24:03.466Z</time></trkpt><trkpt lat="40.6711577" lon="17.3364189"><ele>430.0</ele><time>2026-04-03T16:24:04.466Z</time></trkpt><trkpt lat="40.6712662" lon="17.3362532"><ele>430.0</ele><time>2026-04-03T16:24:05.466Z</time></trkpt><trkpt lat="40.6713472" lon="17.336116"><ele>430.0</ele><time>2026-04-03T16:24:06.466Z</time></trkpt><trkpt lat="40.6714188" lon="17.3359754"><ele>430.0</ele><time>2026-04-03T16:24:07.467Z</time></trkpt><trkpt lat="40.6714898" lon="17.3358261"><ele>430.0</ele><time>2026-04-03T16:24:08.467Z</time></trkpt><trkpt lat="40.6715559" lon="17.3356706"><ele>430.0</ele><time>2026-04-03T16:24:09.466Z</time></trkpt><trkpt lat="40.671613" lon="17.3355061"><ele>430.0</ele><time>2026-04-03T16:24:10.467Z</time></trkpt><trkpt lat="40.6716607" lon="17.3353331"><ele>430.0</ele><time>2026-04-03T16:24:11.467Z</time></trkpt><trkpt lat="40.6716947" lon="17.3351462"><ele>430.0</ele><time>2026-04-03T16:24:12.467Z</time></trkpt><trkpt lat="40.671731" lon="17.3349805"><ele>430.0</ele><time>2026-04-03T16:24:13.466Z</time></trkpt><trkpt lat="40.6717592" lon="17.3348043"><ele>430.0</ele><time>2026-04-03T16:24:14.465Z</time></trkpt><trkpt lat="40.6717932" lon="17.3346365"><ele>430.0</ele><time>2026-04-03T16:24:15.466Z</time></trkpt><trkpt lat="40.6718391" lon="17.3344561"><ele>430.0</ele><time>2026-04-03T16:24:16.466Z</time></trkpt><trkpt lat="40.6718913" lon="17.3342812"><ele>430.0</ele><time>2026-04-03T16:24:17.466Z</time></trkpt><trkpt lat="40.6719482" lon="17.3341017"><ele>430.0</ele><time>2026-04-03T16:24:18.465Z</time></trkpt><trkpt lat="40.6720049" lon="17.3339207"><ele>430.0</ele><time>2026-04-03T16:24:19.465Z</time></trkpt><trkpt lat="40.6720693" lon="17.3337561"><ele>429.33333333333337</ele><time>2026-04-03T16:24:20.465Z</time></trkpt><trkpt lat="40.6721218" lon="17.3335633"><ele>428.66666666666663</ele><time>2026-04-03T16:24:21.466Z</time></trkpt><trkpt lat="40.6721732" lon="17.3333687"><ele>428.0</ele><time>2026-04-03T16:24:22.465Z</time></trkpt><trkpt lat="40.6722162" lon="17.3331695"><ele>428.25</ele><time>2026-04-03T16:24:23.465Z</time></trkpt><trkpt lat="40.6722586" lon="17.3329762"><ele>428.5</ele><time>2026-04-03T16:24:24.466Z</time></trkpt><trkpt lat="40.6722974" lon="17.3327901"><ele>428.75</ele><time>2026-04-03T16:24:25.466Z</time></trkpt><trkpt lat="40.6723336" lon="17.3326023"><ele>429.0</ele><time>2026-04-03T16:24:26.466Z</time></trkpt><trkpt lat="40.6723674" lon="17.3324136"><ele>429.0</ele><time>2026-04-03T16:24:27.465Z</time></trkpt><trkpt lat="40.6724055" lon="17.3322351"><ele>429.0</ele><time>2026-04-03T16:24:28.465Z</time></trkpt><trkpt lat="40.6724471" lon="17.33204"><ele>429.0</ele><time>2026-04-03T16:24:29.466Z</time></trkpt><trkpt lat="40.6724854" lon="17.3318479"><ele>429.0</ele><time>2026-04-03T16:24:30.465Z</time></trkpt><trkpt lat="40.6725398" lon="17.3316242"><ele>429.25</ele><time>2026-04-03T16:24:31.466Z</time></trkpt><trkpt lat="40.672586" lon="17.3314386"><ele>429.5</ele><time>2026-04-03T16:24:32.466Z</time></trkpt><trkpt lat="40.672646" lon="17.3312185"><ele>429.75</ele><time>2026-04-03T16:24:33.466Z</time></trkpt><trkpt lat="40.6726948" lon="17.3310984"><ele>430.0</ele><time>2026-04-03T16:24:34.465Z</time></trkpt><trkpt lat="40.6727624" lon="17.3309503"><ele>429.2</ele><time>2026-04-03T16:24:35.467Z</time></trkpt><trkpt lat="40.672829" lon="17.3308741"><ele>428.4</ele><time>2026-04-03T16:24:36.466Z</time></trkpt><trkpt lat="40.6729012" lon="17.3307997"><ele>427.6</ele><time>2026-04-03T16:24:37.466Z</time></trkpt><trkpt lat="40.6729849" lon="17.3307459"><ele>426.8</ele><time>2026-04-03T16:24:38.466Z</time></trkpt><trkpt lat="40.6730678" lon="17.3307224"><ele>426.0</ele><time>2026-04-03T16:24:39.466Z</time></trkpt><trkpt lat="40.6731978" lon="17.3307798"><ele>426.0</ele><time>2026-04-03T16:24:40.465Z</time></trkpt><trkpt lat="40.6733004" lon="17.3308316"><ele>426.0</ele><time>2026-04-03T16:24:41.466Z</time></trkpt><trkpt lat="40.6733833" lon="17.3308709"><ele>426.0</ele><time>2026-04-03T16:24:42.466Z</time></trkpt><trkpt lat="40.6735087" lon="17.3309535"><ele>426.0</ele><time>2026-04-03T16:24:43.466Z</time></trkpt><trkpt lat="40.6736324" lon="17.3310348"><ele>425.33333333333337</ele><time>2026-04-03T16:24:44.465Z</time></trkpt><trkpt lat="40.6738038" lon="17.3311819"><ele>424.6666666666667</ele><time>2026-04-03T16:24:45.467Z</time></trkpt><trkpt lat="40.6739439" lon="17.3313086"><ele>424.0</ele><time>2026-04-03T16:24:46.466Z</time></trkpt><trkpt lat="40.6740957" lon="17.3314369"><ele>423.33333333333337</ele><time>2026-04-03T16:24:47.467Z</time></trkpt><trkpt lat="40.6742271" lon="17.3315649"><ele>422.66666666666663</ele><time>2026-04-03T16:24:48.467Z</time></trkpt><trkpt lat="40.6743744" lon="17.3316911"><ele>422.0</ele><time>2026-04-03T16:24:49.466Z</time></trkpt><trkpt lat="40.6745142" lon="17.331808"><ele>422.0</ele><time>2026-04-03T16:24:50.465Z</time></trkpt><trkpt lat="40.6746597" lon="17.331911"><ele>422.0</ele><time>2026-04-03T16:24:51.467Z</time></trkpt><trkpt lat="40.6748207" lon="17.3320093"><ele>422.0</ele><time>2026-04-03T16:24:52.466Z</time></trkpt><trkpt lat="40.6749713" lon="17.3320898"><ele>422.0</ele><time>2026-04-03T16:24:53.466Z</time></trkpt><trkpt lat="40.6751171" lon="17.3321567"><ele>422.0</ele><time>2026-04-03T16:24:54.466Z</time></trkpt><trkpt lat="40.6752564" lon="17.3322167"><ele>422.0</ele><time>2026-04-03T16:24:55.465Z</time></trkpt><trkpt lat="40.6754065" lon="17.3322776"><ele>421.75</ele><time>2026-04-03T16:24:56.467Z</time></trkpt><trkpt lat="40.675538" lon="17.3323272"><ele>421.5</ele><time>2026-04-03T16:24:57.466Z</time></trkpt><trkpt lat="40.6756811" lon="17.3323917"><ele>421.25</ele><time>2026-04-03T16:24:58.467Z</time></trkpt><trkpt lat="40.6758289" lon="17.3324603"><ele>421.0</ele><time>2026-04-03T16:24:59.466Z</time></trkpt><trkpt lat="40.6759661" lon="17.332547"><ele>421.0</ele><time>2026-04-03T16:25:00.465Z</time></trkpt><trkpt lat="40.6760943" lon="17.3326467"><ele>421.0</ele><time>2026-04-03T16:25:01.466Z</time></trkpt><trkpt lat="40.6762196" lon="17.332745"><ele>421.0</ele><time>2026-04-03T16:25:02.466Z</time></trkpt><trkpt lat="40.6763259" lon="17.3328445"><ele>421.0</ele><time>2026-04-03T16:25:03.465Z</time></trkpt><trkpt lat="40.6764584" lon="17.3329345"><ele>421.25</ele><time>2026-04-03T16:25:04.466Z</time></trkpt><trkpt lat="40.6765949" lon="17.3330166"><ele>421.5</ele><time>2026-04-03T16:25:05.466Z</time></trkpt><trkpt lat="40.6767405" lon="17.3330817"><ele>421.75</ele><time>2026-04-03T16:25:06.467Z</time></trkpt><trkpt lat="40.6768628" lon="17.3331392"><ele>422.0</ele><time>2026-04-03T16:25:07.467Z</time></trkpt><trkpt lat="40.6769995" lon="17.3332021"><ele>421.25</ele><time>2026-04-03T16:25:08.466Z</time></trkpt><trkpt lat="40.6771209" lon="17.333263"><ele>420.5</ele><time>2026-04-03T16:25:09.466Z</time></trkpt><trkpt lat="40.6772457" lon="17.3333324"><ele>419.75</ele><time>2026-04-03T16:25:10.466Z</time></trkpt><trkpt lat="40.6773913" lon="17.3334343"><ele>419.0</ele><time>2026-04-03T16:25:11.467Z</time></trkpt><trkpt lat="40.6775266" lon="17.3335255"><ele>419.0</ele><time>2026-04-03T16:25:12.466Z</time></trkpt><trkpt lat="40.6776696" lon="17.3336281"><ele>419.0</ele><time>2026-04-03T16:25:13.467Z</time></trkpt><trkpt lat="40.6778073" lon="17.3337137"><ele>419.0</ele><time>2026-04-03T16:25:14.467Z</time></trkpt><trkpt lat="40.677957" lon="17.3337905"><ele>419.0</ele><time>2026-04-03T16:25:15.467Z</time></trkpt><trkpt lat="40.6781241" lon="17.3338598"><ele>419.0</ele><time>2026-04-03T16:25:16.467Z</time></trkpt><trkpt lat="40.6782663" lon="17.3338982"><ele>419.0</ele><time>2026-04-03T16:25:17.466Z</time></trkpt><trkpt lat="40.6784313" lon="17.3339375"><ele>418.66666666666663</ele><time>2026-04-03T16:25:18.466Z</time></trkpt><trkpt lat="40.6786015" lon="17.3339656"><ele>418.33333333333337</ele><time>2026-04-03T16:25:19.467Z</time></trkpt><trkpt lat="40.6787577" lon="17.3339881"><ele>418.0</ele><time>2026-04-03T16:25:20.466Z</time></trkpt><trkpt lat="40.6789216" lon="17.3340367"><ele>418.0</ele><time>2026-04-03T16:25:21.466Z</time></trkpt><trkpt lat="40.6790722" lon="17.3340857"><ele>418.0</ele><time>2026-04-03T16:25:22.466Z</time></trkpt><trkpt lat="40.6792437" lon="17.3341542"><ele>418.0</ele><time>2026-04-03T16:25:23.466Z</time></trkpt><trkpt lat="40.6794176" lon="17.3342191"><ele>418.0</ele><time>2026-04-03T16:25:24.466Z</time></trkpt><trkpt lat="40.6795847" lon="17.3342835"><ele>418.0</ele><time>2026-04-03T16:25:25.466Z</time></trkpt><trkpt lat="40.6797614" lon="17.3343598"><ele>418.0</ele><time>2026-04-03T16:25:26.466Z</time></trkpt><trkpt lat="40.6799533" lon="17.3344465"><ele>418.0</ele><time>2026-04-03T16:25:27.467Z</time></trkpt><trkpt lat="40.6801362" lon="17.3345198"><ele>418.0</ele><time>2026-04-03T16:25:28.465Z</time></trkpt><trkpt lat="40.680298" lon="17.3345838"><ele>418.0</ele><time>2026-04-03T16:25:29.467Z</time></trkpt><trkpt lat="40.6805529" lon="17.3346894"><ele>417.6666666666667</ele><time>2026-04-03T16:25:30.467Z</time></trkpt><trkpt lat="40.6807138" lon="17.3347457"><ele>417.33333333333337</ele><time>2026-04-03T16:25:31.466Z</time></trkpt><trkpt lat="40.6808845" lon="17.3347719"><ele>417.0</ele><time>2026-04-03T16:25:32.466Z</time></trkpt><trkpt lat="40.6810308" lon="17.3348401"><ele>416.66666666666663</ele><time>2026-04-03T16:25:33.466Z</time></trkpt><trkpt lat="40.6811796" lon="17.3348898"><ele>416.3333333333333</ele><time>2026-04-03T16:25:34.465Z</time></trkpt><trkpt lat="40.6813351" lon="17.3349288"><ele>416.0</ele><time>2026-04-03T16:25:35.466Z</time></trkpt><trkpt lat="40.6814866" lon="17.334969"><ele>416.0</ele><time>2026-04-03T16:25:36.467Z</time></trkpt><trkpt lat="40.6816511" lon="17.3350015"><ele>416.0</ele><time>2026-04-03T16:25:37.466Z</time></trkpt><trkpt lat="40.6818194" lon="17.3350331"><ele>416.0</ele><time>2026-04-03T16:25:38.466Z</time></trkpt><trkpt lat="40.6819841" lon="17.3350603"><ele>416.3333333333333</ele><time>2026-04-03T16:25:39.467Z</time></trkpt><trkpt lat="40.6821551" lon="17.3350676"><ele>416.66666666666663</ele><time>2026-04-03T16:25:40.466Z</time></trkpt><trkpt lat="40.6823285" lon="17.3350782"><ele>417.0</ele><time>2026-04-03T16:25:41.465Z</time></trkpt><trkpt lat="40.6825037" lon="17.3350807"><ele>417.0</ele><time>2026-04-03T16:25:42.466Z</time></trkpt><trkpt lat="40.6826826" lon="17.3350736"><ele>417.0</ele><time>2026-04-03T16:25:43.466Z</time></trkpt><trkpt lat="40.6828631" lon="17.3350648"><ele>417.0</ele><time>2026-04-03T16:25:44.466Z</time></trkpt><trkpt lat="40.6830197" lon="17.335051"><ele>416.66666666666663</ele><time>2026-04-03T16:25:45.465Z</time></trkpt><trkpt lat="40.68318" lon="17.3350452"><ele>416.3333333333333</ele><time>2026-04-03T16:25:46.466Z</time></trkpt><trkpt lat="40.6833362" lon="17.3350589"><ele>416.0</ele><time>2026-04-03T16:25:47.466Z</time></trkpt><trkpt lat="40.6834882" lon="17.3350867"><ele>416.0</ele><time>2026-04-03T16:25:48.466Z</time></trkpt><trkpt lat="40.6836323" lon="17.3351011"><ele>416.0</ele><time>2026-04-03T16:25:49.467Z</time></trkpt><trkpt lat="40.6837821" lon="17.3351192"><ele>416.0</ele><time>2026-04-03T16:25:50.466Z</time></trkpt><trkpt lat="40.6839353" lon="17.3351385"><ele>416.0</ele><time>2026-04-03T16:25:51.467Z</time></trkpt><trkpt lat="40.6840897" lon="17.335154"><ele>416.0</ele><time>2026-04-03T16:25:52.466Z</time></trkpt><trkpt lat="40.6842369" lon="17.3351862"><ele>416.0</ele><time>2026-04-03T16:25:53.465Z</time></trkpt><trkpt lat="40.6843896" lon="17.3352141"><ele>416.0</ele><time>2026-04-03T16:25:54.466Z</time></trkpt><trkpt lat="40.6845396" lon="17.3352441"><ele>416.25</ele><time>2026-04-03T16:25:55.466Z</time></trkpt><trkpt lat="40.684683" lon="17.3352798"><ele>416.5</ele><time>2026-04-03T16:25:56.466Z</time></trkpt><trkpt lat="40.684821" lon="17.3353183"><ele>416.75</ele><time>2026-04-03T16:25:57.465Z</time></trkpt><trkpt lat="40.6849514" lon="17.3353519"><ele>417.0</ele><time>2026-04-03T16:25:58.466Z</time></trkpt><trkpt lat="40.6850774" lon="17.3353576"><ele>417.0</ele><time>2026-04-03T16:25:59.466Z</time></trkpt><trkpt lat="40.6852028" lon="17.3353456"><ele>417.0</ele><time>2026-04-03T16:26:00.465Z</time></trkpt><trkpt lat="40.6853103" lon="17.3352774"><ele>417.0</ele><time>2026-04-03T16:26:01.466Z</time></trkpt><trkpt lat="40.6854131" lon="17.3351831"><ele>417.0</ele><time>2026-04-03T16:26:02.465Z</time></trkpt><trkpt lat="40.6855227" lon="17.3350597"><ele>417.25</ele><time>2026-04-03T16:26:03.465Z</time></trkpt><trkpt lat="40.6856211" lon="17.3349566"><ele>417.5</ele><time>2026-04-03T16:26:04.465Z</time></trkpt><trkpt lat="40.6857278" lon="17.3348637"><ele>417.75</ele><time>2026-04-03T16:26:05.466Z</time></trkpt><trkpt lat="40.6858422" lon="17.3347734"><ele>418.0</ele><time>2026-04-03T16:26:06.467Z</time></trkpt><trkpt lat="40.6859676" lon="17.3346969"><ele>418.0</ele><time>2026-04-03T16:26:07.467Z</time></trkpt><trkpt lat="40.6861044" lon="17.3346343"><ele>418.0</ele><time>2026-04-03T16:26:08.467Z</time></trkpt><trkpt lat="40.686239" lon="17.3345875"><ele>418.0</ele><time>2026-04-03T16:26:09.467Z</time></trkpt><trkpt lat="40.6863779" lon="17.3345611"><ele>418.0</ele><time>2026-04-03T16:26:10.467Z</time></trkpt><trkpt lat="40.6865262" lon="17.3345589"><ele>418.0</ele><time>2026-04-03T16:26:11.467Z</time></trkpt><trkpt lat="40.686682" lon="17.3345632"><ele>418.0</ele><time>2026-04-03T16:26:12.466Z</time></trkpt><trkpt lat="40.6868403" lon="17.3345664"><ele>418.0</ele><time>2026-04-03T16:26:13.465Z</time></trkpt><trkpt lat="40.6869918" lon="17.3345683"><ele>418.25</ele><time>2026-04-03T16:26:14.465Z</time></trkpt><trkpt lat="40.6871497" lon="17.3345558"><ele>418.5</ele><time>2026-04-03T16:26:15.465Z</time></trkpt><trkpt lat="40.6872975" lon="17.3345447"><ele>418.75</ele><time>2026-04-03T16:26:16.465Z</time></trkpt><trkpt lat="40.68744" lon="17.3345286"><ele>419.0</ele><time>2026-04-03T16:26:17.466Z</time></trkpt><trkpt lat="40.6875771" lon="17.3345236"><ele>419.0</ele><time>2026-04-03T16:26:18.465Z</time></trkpt><trkpt lat="40.6877076" lon="17.3345352"><ele>419.0</ele><time>2026-04-03T16:26:19.465Z</time></trkpt><trkpt lat="40.6878386" lon="17.3345575"><ele>419.0</ele><time>2026-04-03T16:26:20.465Z</time></trkpt><trkpt lat="40.6879784" lon="17.3345745"><ele>419.0</ele><time>2026-04-03T16:26:21.464Z</time></trkpt><trkpt lat="40.6881148" lon="17.3345899"><ele>418.75</ele><time>2026-04-03T16:26:22.464Z</time></trkpt><trkpt lat="40.6882529" lon="17.3346043"><ele>418.5</ele><time>2026-04-03T16:26:23.465Z</time></trkpt><trkpt lat="40.68838" lon="17.3346201"><ele>418.25</ele><time>2026-04-03T16:26:24.465Z</time></trkpt><trkpt lat="40.6885089" lon="17.3346299"><ele>418.0</ele><time>2026-04-03T16:26:25.465Z</time></trkpt><trkpt lat="40.6886321" lon="17.3346299"><ele>417.75</ele><time>2026-04-03T16:26:26.465Z</time></trkpt><trkpt lat="40.6887559" lon="17.3346225"><ele>417.5</ele><time>2026-04-03T16:26:27.465Z</time></trkpt><trkpt lat="40.6888744" lon="17.3345967"><ele>417.25</ele><time>2026-04-03T16:26:28.464Z</time></trkpt><trkpt lat="40.6889731" lon="17.3345686"><ele>417.0</ele><time>2026-04-03T16:26:29.466Z</time></trkpt><trkpt lat="40.6890742" lon="17.3345333"><ele>417.0</ele><time>2026-04-03T16:26:30.465Z</time></trkpt><trkpt lat="40.68917" lon="17.3344952"><ele>417.0</ele><time>2026-04-03T16:26:31.464Z</time></trkpt><trkpt lat="40.6892832" lon="17.3344539"><ele>417.0</ele><time>2026-04-03T16:26:32.465Z</time></trkpt><trkpt lat="40.6893713" lon="17.3344195"><ele>417.0</ele><time>2026-04-03T16:26:33.466Z</time></trkpt><trkpt lat="40.6894644" lon="17.3343807"><ele>417.0</ele><time>2026-04-03T16:26:34.466Z</time></trkpt><trkpt lat="40.6895477" lon="17.3343581"><ele>416.1666666666667</ele><time>2026-04-03T16:26:35.465Z</time></trkpt><trkpt lat="40.6896262" lon="17.3343328"><ele>415.33333333333337</ele><time>2026-04-03T16:26:36.466Z</time></trkpt><trkpt lat="40.6897011" lon="17.3343127"><ele>414.5</ele><time>2026-04-03T16:26:38.466Z</time></trkpt><trkpt lat="40.6897763" lon="17.3342822"><ele>413.6666666666667</ele><time>2026-04-03T16:26:47.466Z</time></trkpt><trkpt lat="40.689849" lon="17.3342413"><ele>412.83333333333337</ele><time>2026-04-03T16:26:58.465Z</time></trkpt><trkpt lat="40.6899623" lon="17.3342341"><ele>412.0</ele><time>2026-04-03T16:27:01.465Z</time></trkpt><trkpt lat="40.690035" lon="17.3342504"><ele>412.0</ele><time>2026-04-03T16:27:02.465Z</time></trkpt><trkpt lat="40.6901206" lon="17.3342777"><ele>412.0</ele><time>2026-04-03T16:27:03.464Z</time></trkpt><trkpt lat="40.6902228" lon="17.3343134"><ele>412.0</ele><time>2026-04-03T16:27:04.464Z</time></trkpt><trkpt lat="40.6903288" lon="17.3343581"><ele>412.0</ele><time>2026-04-03T16:27:05.466Z</time></trkpt><trkpt lat="40.6904413" lon="17.3344042"><ele>412.0</ele><time>2026-04-03T16:27:06.464Z</time></trkpt><trkpt lat="40.6905644" lon="17.334457"><ele>411.75</ele><time>2026-04-03T16:27:07.466Z</time></trkpt><trkpt lat="40.6906929" lon="17.3345129"><ele>411.5</ele><time>2026-04-03T16:27:08.466Z</time></trkpt><trkpt lat="40.6908226" lon="17.3345655"><ele>411.25</ele><time>2026-04-03T16:27:09.466Z</time></trkpt><trkpt lat="40.6909621" lon="17.3346197"><ele>411.0</ele><time>2026-04-03T16:27:10.465Z</time></trkpt><trkpt lat="40.6910956" lon="17.3346754"><ele>411.25</ele><time>2026-04-03T16:27:11.465Z</time></trkpt><trkpt lat="40.6912342" lon="17.3347322"><ele>411.5</ele><time>2026-04-03T16:27:12.466Z</time></trkpt><trkpt lat="40.691376" lon="17.3347927"><ele>411.75</ele><time>2026-04-03T16:27:13.466Z</time></trkpt><trkpt lat="40.6915166" lon="17.3348473"><ele>412.0</ele><time>2026-04-03T16:27:14.465Z</time></trkpt><trkpt lat="40.6916646" lon="17.3349047"><ele>412.0</ele><time>2026-04-03T16:27:15.465Z</time></trkpt><trkpt lat="40.6918156" lon="17.3349678"><ele>412.0</ele><time>2026-04-03T16:27:16.465Z</time></trkpt><trkpt lat="40.6919674" lon="17.3350353"><ele>412.0</ele><time>2026-04-03T16:27:17.466Z</time></trkpt><trkpt lat="40.6921178" lon="17.3350964"><ele>411.6666666666667</ele><time>2026-04-03T16:27:18.464Z</time></trkpt><trkpt lat="40.6922684" lon="17.3351545"><ele>411.33333333333337</ele><time>2026-04-03T16:27:19.464Z</time></trkpt><trkpt lat="40.6924378" lon="17.3352219"><ele>411.0</ele><time>2026-04-03T16:27:20.466Z</time></trkpt><trkpt lat="40.6925961" lon="17.3352925"><ele>411.0</ele><time>2026-04-03T16:27:21.466Z</time></trkpt><trkpt lat="40.6927555" lon="17.3353589"><ele>411.0</ele><time>2026-04-03T16:27:22.465Z</time></trkpt><trkpt lat="40.6929028" lon="17.3354254"><ele>411.0</ele><time>2026-04-03T16:27:23.466Z</time></trkpt><trkpt lat="40.6930607" lon="17.3354913"><ele>412.0</ele><time>2026-04-03T16:27:24.465Z</time></trkpt><trkpt lat="40.6932096" lon="17.3355551"><ele>413.0</ele><time>2026-04-03T16:27:25.466Z</time></trkpt><trkpt lat="40.693352" lon="17.3356058"><ele>414.0</ele><time>2026-04-03T16:27:26.465Z</time></trkpt><trkpt lat="40.6935006" lon="17.3356591"><ele>415.25</ele><time>2026-04-03T16:27:27.465Z</time></trkpt><trkpt lat="40.6936405" lon="17.3357126"><ele>416.5</ele><time>2026-04-03T16:27:28.466Z</time></trkpt><trkpt lat="40.6937805" lon="17.335766"><ele>417.75</ele><time>2026-04-03T16:27:29.466Z</time></trkpt><trkpt lat="40.6939172" lon="17.3358183"><ele>419.0</ele><time>2026-04-03T16:27:30.466Z</time></trkpt><trkpt lat="40.6940343" lon="17.335869"><ele>419.0</ele><time>2026-04-03T16:27:31.465Z</time></trkpt><trkpt lat="40.6941595" lon="17.3359091"><ele>419.0</ele><time>2026-04-03T16:27:32.465Z</time></trkpt><trkpt lat="40.6942767" lon="17.3359609"><ele>419.0</ele><time>2026-04-03T16:27:33.465Z</time></trkpt><trkpt lat="40.6943916" lon="17.3360141"><ele>419.0</ele><time>2026-04-03T16:27:34.466Z</time></trkpt><trkpt lat="40.6944986" lon="17.336054"><ele>418.99999999999994</ele><time>2026-04-03T16:27:35.465Z</time></trkpt><trkpt lat="40.6945974" lon="17.3360961"><ele>419.0</ele><time>2026-04-03T16:27:36.465Z</time></trkpt><trkpt lat="40.6946829" lon="17.3361305"><ele>419.0</ele><time>2026-04-03T16:27:37.465Z</time></trkpt><trkpt lat="40.6947557" lon="17.3361609"><ele>419.0</ele><time>2026-04-03T16:27:38.465Z</time></trkpt><trkpt lat="40.6948221" lon="17.3361871"><ele>418.99999999999994</ele><time>2026-04-03T16:27:39.465Z</time></trkpt><trkpt lat="40.6948889" lon="17.3362138"><ele>419.0</ele><time>2026-04-03T16:27:40.466Z</time></trkpt><trkpt lat="40.6949521" lon="17.3362395"><ele>418.99999999999994</ele><time>2026-04-03T16:27:41.465Z</time></trkpt><trkpt lat="40.6950422" lon="17.3362798"><ele>419.0</ele><time>2026-04-03T16:27:43.465Z</time></trkpt><trkpt lat="40.6951434" lon="17.336315"><ele>419.0</ele><time>2026-04-03T16:27:45.465Z</time></trkpt><trkpt lat="40.6952103" lon="17.3363399"><ele>419.0</ele><time>2026-04-03T16:27:46.465Z</time></trkpt><trkpt lat="40.6952839" lon="17.336373"><ele>418.99999999999994</ele><time>2026-04-03T16:27:47.466Z</time></trkpt><trkpt lat="40.6953687" lon="17.3364124"><ele>419.0</ele><time>2026-04-03T16:27:48.465Z</time></trkpt><trkpt lat="40.6954702" lon="17.3364551"><ele>419.5</ele><time>2026-04-03T16:27:49.465Z</time></trkpt><trkpt lat="40.6955787" lon="17.3365016"><ele>420.0</ele><time>2026-04-03T16:27:50.465Z</time></trkpt><trkpt lat="40.695686" lon="17.3365477"><ele>420.5</ele><time>2026-04-03T16:27:51.464Z</time></trkpt><trkpt lat="40.6958107" lon="17.3365917"><ele>421.0</ele><time>2026-04-03T16:27:52.466Z</time></trkpt><trkpt lat="40.6959406" lon="17.3366394"><ele>421.0</ele><time>2026-04-03T16:27:53.466Z</time></trkpt><trkpt lat="40.6960663" lon="17.3366916"><ele>421.0</ele><time>2026-04-03T16:27:54.464Z</time></trkpt><trkpt lat="40.6961914" lon="17.3367397"><ele>421.0</ele><time>2026-04-03T16:27:55.465Z</time></trkpt><trkpt lat="40.6963218" lon="17.3367931"><ele>421.0</ele><time>2026-04-03T16:27:56.466Z</time></trkpt><trkpt lat="40.6964503" lon="17.3368421"><ele>420.25</ele><time>2026-04-03T16:27:57.466Z</time></trkpt><trkpt lat="40.6965739" lon="17.3369013"><ele>419.5</ele><time>2026-04-03T16:27:58.466Z</time></trkpt><trkpt lat="40.6966793" lon="17.336946"><ele>418.75</ele><time>2026-04-03T16:27:59.464Z</time></trkpt><trkpt lat="40.6967881" lon="17.3369897"><ele>418.0</ele><time>2026-04-03T16:28:00.465Z</time></trkpt><trkpt lat="40.6968906" lon="17.3370323"><ele>417.2</ele><time>2026-04-03T16:28:01.465Z</time></trkpt><trkpt lat="40.696981" lon="17.3370643"><ele>416.4</ele><time>2026-04-03T16:28:02.465Z</time></trkpt><trkpt lat="40.6970573" lon="17.3371062"><ele>415.59999999999997</ele><time>2026-04-03T16:28:03.465Z</time></trkpt><trkpt lat="40.6971335" lon="17.3371448"><ele>414.79999999999995</ele><time>2026-04-03T16:28:04.466Z</time></trkpt><trkpt lat="40.6972422" lon="17.3371992"><ele>414.0</ele><time>2026-04-03T16:28:06.464Z</time></trkpt><trkpt lat="40.6973195" lon="17.337233"><ele>414.0</ele><time>2026-04-03T16:28:08.466Z</time></trkpt></trkseg></trk></gpx>